<?xml version="1.0" encoding="UTF-8" standalone="no" ?>
<gpx xmlns="http://www.topografix.com/GPX/1/1" xmlns:xsi="http://www.w3.org/2001/XMLSchema-instance" xsi:schemaLocation="http://www.topografix.com/GPX/1/1 http://www.topografix.com/GPX/1/1/gpx.xsd" version="1.1" creator="VisuGPX - https://www.visugpx.com">
  <metadata>
    <name>Randonnée autour du Markstein</name>
    <desc><![CDATA[col du Hahnenbrunnen- Trehkopf- Markstein- lac de la Lauch-col d'Oberlauchen. 
]]></desc>
  </metadata>
  <trk>
    <name><![CDATA[2016-10-02 16:02:50]]></name>
    <trkseg>
      <trkpt lat="47.95202" lon="7.01974">
        <ele>1185.61</ele>
        <time>2016-10-02T07:53:49Z</time>
      </trkpt>
      <trkpt lat="47.95187" lon="7.01978">
        <ele>1187.82</ele>
        <time>2016-10-02T07:55:54Z</time>
      </trkpt>
      <trkpt lat="47.95168" lon="7.01975">
        <ele>1188.3</ele>
        <time>2016-10-02T07:56:10Z</time>
      </trkpt>
      <trkpt lat="47.95149" lon="7.01973">
        <ele>1188.34</ele>
        <time>2016-10-02T07:56:26Z</time>
      </trkpt>
      <trkpt lat="47.95129" lon="7.01972">
        <ele>1189.56</ele>
        <time>2016-10-02T07:56:44Z</time>
      </trkpt>
      <trkpt lat="47.9511" lon="7.01971">
        <ele>1189.51</ele>
        <time>2016-10-02T07:57:00Z</time>
      </trkpt>
      <trkpt lat="47.95092" lon="7.01973">
        <ele>1192.68</ele>
        <time>2016-10-02T07:57:26Z</time>
      </trkpt>
      <trkpt lat="47.95073" lon="7.01976">
        <ele>1195.33</ele>
        <time>2016-10-02T07:57:49Z</time>
      </trkpt>
      <trkpt lat="47.95054" lon="7.01981">
        <ele>1196.02</ele>
        <time>2016-10-02T07:58:06Z</time>
      </trkpt>
      <trkpt lat="47.95035" lon="7.01986">
        <ele>1200.02</ele>
        <time>2016-10-02T07:58:24Z</time>
      </trkpt>
      <trkpt lat="47.95017" lon="7.01996">
        <ele>1201.09</ele>
        <time>2016-10-02T07:58:43Z</time>
      </trkpt>
      <trkpt lat="47.94999" lon="7.02004">
        <ele>1202.57</ele>
        <time>2016-10-02T07:59:00Z</time>
      </trkpt>
      <trkpt lat="47.94982" lon="7.02013">
        <ele>1205.54</ele>
        <time>2016-10-02T07:59:18Z</time>
      </trkpt>
      <trkpt lat="47.94964" lon="7.02022">
        <ele>1205.88</ele>
        <time>2016-10-02T07:59:38Z</time>
      </trkpt>
      <trkpt lat="47.94946" lon="7.0203">
        <ele>1208.54</ele>
        <time>2016-10-02T08:00:00Z</time>
      </trkpt>
      <trkpt lat="47.94927" lon="7.02039">
        <ele>1209.71</ele>
        <time>2016-10-02T08:00:20Z</time>
      </trkpt>
      <trkpt lat="47.94908" lon="7.02047">
        <ele>1212.17</ele>
        <time>2016-10-02T08:00:40Z</time>
      </trkpt>
      <trkpt lat="47.9489" lon="7.02055">
        <ele>1216.97</ele>
        <time>2016-10-02T08:01:03Z</time>
      </trkpt>
      <trkpt lat="47.94873" lon="7.02063">
        <ele>1218.7</ele>
        <time>2016-10-02T08:01:24Z</time>
      </trkpt>
      <trkpt lat="47.94855" lon="7.02071">
        <ele>1220.66</ele>
        <time>2016-10-02T08:01:47Z</time>
      </trkpt>
      <trkpt lat="47.94837" lon="7.02078">
        <ele>1223.73</ele>
        <time>2016-10-02T08:02:09Z</time>
      </trkpt>
      <trkpt lat="47.94818" lon="7.02087">
        <ele>1225.65</ele>
        <time>2016-10-02T08:02:30Z</time>
      </trkpt>
      <trkpt lat="47.94802" lon="7.021">
        <ele>1226.69</ele>
        <time>2016-10-02T08:02:51Z</time>
      </trkpt>
      <trkpt lat="47.94788" lon="7.02114">
        <ele>1229.22</ele>
        <time>2016-10-02T08:03:11Z</time>
      </trkpt>
      <trkpt lat="47.94771" lon="7.02134">
        <ele>1231.77</ele>
        <time>2016-10-02T08:03:36Z</time>
      </trkpt>
      <trkpt lat="47.94754" lon="7.02153">
        <ele>1236.01</ele>
        <time>2016-10-02T08:04:03Z</time>
      </trkpt>
      <trkpt lat="47.94733" lon="7.02172">
        <ele>1239.29</ele>
        <time>2016-10-02T08:04:27Z</time>
      </trkpt>
      <trkpt lat="47.94715" lon="7.02187">
        <ele>1242.88</ele>
        <time>2016-10-02T08:04:50Z</time>
      </trkpt>
      <trkpt lat="47.94697" lon="7.02206">
        <ele>1246.96</ele>
        <time>2016-10-02T08:05:18Z</time>
      </trkpt>
      <trkpt lat="47.94679" lon="7.02227">
        <ele>1251.42</ele>
        <time>2016-10-02T08:05:50Z</time>
      </trkpt>
      <trkpt lat="47.94661" lon="7.02242">
        <ele>1252.99</ele>
        <time>2016-10-02T08:06:25Z</time>
      </trkpt>
      <trkpt lat="47.94643" lon="7.02266">
        <ele>1256.34</ele>
        <time>2016-10-02T08:06:53Z</time>
      </trkpt>
      <trkpt lat="47.94627" lon="7.02296">
        <ele>1258.53</ele>
        <time>2016-10-02T08:07:22Z</time>
      </trkpt>
      <trkpt lat="47.9461" lon="7.02303">
        <ele>1260.5</ele>
        <time>2016-10-02T08:09:33Z</time>
      </trkpt>
      <trkpt lat="47.94591" lon="7.02312">
        <ele>1260.74</ele>
        <time>2016-10-02T08:10:16Z</time>
      </trkpt>
      <trkpt lat="47.94571" lon="7.02316">
        <ele>1261.86</ele>
        <time>2016-10-02T08:11:01Z</time>
      </trkpt>
      <trkpt lat="47.94553" lon="7.02313">
        <ele>1261.91</ele>
        <time>2016-10-02T08:11:30Z</time>
      </trkpt>
      <trkpt lat="47.94536" lon="7.02309">
        <ele>1263.18</ele>
        <time>2016-10-02T08:11:48Z</time>
      </trkpt>
      <trkpt lat="47.94518" lon="7.02317">
        <ele>1262.6</ele>
        <time>2016-10-02T08:12:08Z</time>
      </trkpt>
      <trkpt lat="47.94497" lon="7.02329">
        <ele>1260.74</ele>
        <time>2016-10-02T08:12:29Z</time>
      </trkpt>
      <trkpt lat="47.94479" lon="7.02317">
        <ele>1260.35</ele>
        <time>2016-10-02T08:12:47Z</time>
      </trkpt>
      <trkpt lat="47.94459" lon="7.02321">
        <ele>1255.85</ele>
        <time>2016-10-02T08:13:11Z</time>
      </trkpt>
      <trkpt lat="47.94437" lon="7.02334">
        <ele>1253.55</ele>
        <time>2016-10-02T08:13:33Z</time>
      </trkpt>
      <trkpt lat="47.94418" lon="7.02339">
        <ele>1251.79</ele>
        <time>2016-10-02T08:13:51Z</time>
      </trkpt>
      <trkpt lat="47.94399" lon="7.02329">
        <ele>1250.71</ele>
        <time>2016-10-02T08:14:10Z</time>
      </trkpt>
      <trkpt lat="47.94379" lon="7.02331">
        <ele>1247.53</ele>
        <time>2016-10-02T08:14:34Z</time>
      </trkpt>
      <trkpt lat="47.94356" lon="7.02329">
        <ele>1243.04</ele>
        <time>2016-10-02T08:14:57Z</time>
      </trkpt>
      <trkpt lat="47.94336" lon="7.02331">
        <ele>1240.08</ele>
        <time>2016-10-02T08:15:22Z</time>
      </trkpt>
      <trkpt lat="47.9431" lon="7.02331">
        <ele>1235.4</ele>
        <time>2016-10-02T08:15:49Z</time>
      </trkpt>
      <trkpt lat="47.94287" lon="7.02331">
        <ele>1230.84</ele>
        <time>2016-10-02T08:16:16Z</time>
      </trkpt>
      <trkpt lat="47.94268" lon="7.02344">
        <ele>1227.19</ele>
        <time>2016-10-02T08:16:38Z</time>
      </trkpt>
      <trkpt lat="47.9425" lon="7.02348">
        <ele>1224.75</ele>
        <time>2016-10-02T08:16:55Z</time>
      </trkpt>
      <trkpt lat="47.94232" lon="7.02345">
        <ele>1222.62</ele>
        <time>2016-10-02T08:17:12Z</time>
      </trkpt>
      <trkpt lat="47.94213" lon="7.02344">
        <ele>1221.34</ele>
        <time>2016-10-02T08:17:28Z</time>
      </trkpt>
      <trkpt lat="47.94195" lon="7.02344">
        <ele>1219.08</ele>
        <time>2016-10-02T08:17:45Z</time>
      </trkpt>
      <trkpt lat="47.94177" lon="7.02344">
        <ele>1218.14</ele>
        <time>2016-10-02T08:18:02Z</time>
      </trkpt>
      <trkpt lat="47.94158" lon="7.02344">
        <ele>1217.25</ele>
        <time>2016-10-02T08:18:20Z</time>
      </trkpt>
      <trkpt lat="47.94139" lon="7.02343">
        <ele>1216.78</ele>
        <time>2016-10-02T08:18:37Z</time>
      </trkpt>
      <trkpt lat="47.94121" lon="7.0234">
        <ele>1217.08</ele>
        <time>2016-10-02T08:18:53Z</time>
      </trkpt>
      <trkpt lat="47.94102" lon="7.02335">
        <ele>1219.29</ele>
        <time>2016-10-02T08:19:11Z</time>
      </trkpt>
      <trkpt lat="47.94083" lon="7.02333">
        <ele>1221.47</ele>
        <time>2016-10-02T08:19:28Z</time>
      </trkpt>
      <trkpt lat="47.94065" lon="7.0233">
        <ele>1222.86</ele>
        <time>2016-10-02T08:19:45Z</time>
      </trkpt>
      <trkpt lat="47.94046" lon="7.02326">
        <ele>1223.61</ele>
        <time>2016-10-02T08:20:02Z</time>
      </trkpt>
      <trkpt lat="47.94028" lon="7.02325">
        <ele>1226.01</ele>
        <time>2016-10-02T08:20:20Z</time>
      </trkpt>
      <trkpt lat="47.94009" lon="7.02325">
        <ele>1224.61</ele>
        <time>2016-10-02T08:20:37Z</time>
      </trkpt>
      <trkpt lat="47.9399" lon="7.02323">
        <ele>1223.83</ele>
        <time>2016-10-02T08:20:54Z</time>
      </trkpt>
      <trkpt lat="47.93971" lon="7.02322">
        <ele>1222.5</ele>
        <time>2016-10-02T08:21:11Z</time>
      </trkpt>
      <trkpt lat="47.93955" lon="7.02314">
        <ele>1221.21</ele>
        <time>2016-10-02T08:21:40Z</time>
      </trkpt>
      <trkpt lat="47.93936" lon="7.02308">
        <ele>1219.23</ele>
        <time>2016-10-02T08:21:56Z</time>
      </trkpt>
      <trkpt lat="47.93918" lon="7.02304">
        <ele>1218.65</ele>
        <time>2016-10-02T08:22:12Z</time>
      </trkpt>
      <trkpt lat="47.939" lon="7.02298">
        <ele>1217.36</ele>
        <time>2016-10-02T08:22:29Z</time>
      </trkpt>
      <trkpt lat="47.93882" lon="7.02292">
        <ele>1215.56</ele>
        <time>2016-10-02T08:22:46Z</time>
      </trkpt>
      <trkpt lat="47.93863" lon="7.02286">
        <ele>1212.98</ele>
        <time>2016-10-02T08:23:02Z</time>
      </trkpt>
      <trkpt lat="47.93845" lon="7.02277">
        <ele>1211.85</ele>
        <time>2016-10-02T08:23:20Z</time>
      </trkpt>
      <trkpt lat="47.93828" lon="7.0227">
        <ele>1211.43</ele>
        <time>2016-10-02T08:23:36Z</time>
      </trkpt>
      <trkpt lat="47.9381" lon="7.02263">
        <ele>1210.38</ele>
        <time>2016-10-02T08:23:52Z</time>
      </trkpt>
      <trkpt lat="47.93793" lon="7.02255">
        <ele>1208.89</ele>
        <time>2016-10-02T08:24:09Z</time>
      </trkpt>
      <trkpt lat="47.93775" lon="7.02246">
        <ele>1208.66</ele>
        <time>2016-10-02T08:24:26Z</time>
      </trkpt>
      <trkpt lat="47.93757" lon="7.02238">
        <ele>1208.96</ele>
        <time>2016-10-02T08:24:44Z</time>
      </trkpt>
      <trkpt lat="47.9374" lon="7.02232">
        <ele>1210.8</ele>
        <time>2016-10-02T08:25:01Z</time>
      </trkpt>
      <trkpt lat="47.93722" lon="7.02223">
        <ele>1210.86</ele>
        <time>2016-10-02T08:25:18Z</time>
      </trkpt>
      <trkpt lat="47.93704" lon="7.02214">
        <ele>1212.38</ele>
        <time>2016-10-02T08:25:35Z</time>
      </trkpt>
      <trkpt lat="47.93687" lon="7.02205">
        <ele>1212.73</ele>
        <time>2016-10-02T08:25:51Z</time>
      </trkpt>
      <trkpt lat="47.9367" lon="7.02198">
        <ele>1212.69</ele>
        <time>2016-10-02T08:26:07Z</time>
      </trkpt>
      <trkpt lat="47.93653" lon="7.02188">
        <ele>1213.05</ele>
        <time>2016-10-02T08:26:23Z</time>
      </trkpt>
      <trkpt lat="47.93637" lon="7.02177">
        <ele>1211.55</ele>
        <time>2016-10-02T08:26:39Z</time>
      </trkpt>
      <trkpt lat="47.93622" lon="7.0216">
        <ele>1212.23</ele>
        <time>2016-10-02T08:26:55Z</time>
      </trkpt>
      <trkpt lat="47.93609" lon="7.02142">
        <ele>1212.27</ele>
        <time>2016-10-02T08:27:11Z</time>
      </trkpt>
      <trkpt lat="47.93595" lon="7.02125">
        <ele>1211.86</ele>
        <time>2016-10-02T08:27:28Z</time>
      </trkpt>
      <trkpt lat="47.93581" lon="7.02107">
        <ele>1210.83</ele>
        <time>2016-10-02T08:27:43Z</time>
      </trkpt>
      <trkpt lat="47.93566" lon="7.02091">
        <ele>1211.84</ele>
        <time>2016-10-02T08:27:59Z</time>
      </trkpt>
      <trkpt lat="47.93551" lon="7.02076">
        <ele>1213.64</ele>
        <time>2016-10-02T08:28:16Z</time>
      </trkpt>
      <trkpt lat="47.93536" lon="7.0206">
        <ele>1214.5</ele>
        <time>2016-10-02T08:28:33Z</time>
      </trkpt>
      <trkpt lat="47.93519" lon="7.02052">
        <ele>1216.01</ele>
        <time>2016-10-02T08:28:52Z</time>
      </trkpt>
      <trkpt lat="47.93503" lon="7.02066">
        <ele>1215.83</ele>
        <time>2016-10-02T08:29:15Z</time>
      </trkpt>
      <trkpt lat="47.93486" lon="7.0206">
        <ele>1217.92</ele>
        <time>2016-10-02T08:29:37Z</time>
      </trkpt>
      <trkpt lat="47.93471" lon="7.02048">
        <ele>1218.81</ele>
        <time>2016-10-02T08:30:14Z</time>
      </trkpt>
      <trkpt lat="47.93456" lon="7.02029">
        <ele>1219.26</ele>
        <time>2016-10-02T08:30:30Z</time>
      </trkpt>
      <trkpt lat="47.93441" lon="7.02013">
        <ele>1220.57</ele>
        <time>2016-10-02T08:30:47Z</time>
      </trkpt>
      <trkpt lat="47.93423" lon="7.02005">
        <ele>1221.87</ele>
        <time>2016-10-02T08:31:05Z</time>
      </trkpt>
      <trkpt lat="47.93405" lon="7.02">
        <ele>1221.28</ele>
        <time>2016-10-02T08:31:20Z</time>
      </trkpt>
      <trkpt lat="47.93388" lon="7.01993">
        <ele>1219.9</ele>
        <time>2016-10-02T08:31:35Z</time>
      </trkpt>
      <trkpt lat="47.93371" lon="7.01988">
        <ele>1218.45</ele>
        <time>2016-10-02T08:31:49Z</time>
      </trkpt>
      <trkpt lat="47.93353" lon="7.01985">
        <ele>1216.58</ele>
        <time>2016-10-02T08:32:04Z</time>
      </trkpt>
      <trkpt lat="47.93336" lon="7.01982">
        <ele>1214.92</ele>
        <time>2016-10-02T08:32:19Z</time>
      </trkpt>
      <trkpt lat="47.93318" lon="7.01981">
        <ele>1214.49</ele>
        <time>2016-10-02T08:32:35Z</time>
      </trkpt>
      <trkpt lat="47.93299" lon="7.0198">
        <ele>1212.31</ele>
        <time>2016-10-02T08:32:50Z</time>
      </trkpt>
      <trkpt lat="47.93281" lon="7.01981">
        <ele>1211.07</ele>
        <time>2016-10-02T08:33:05Z</time>
      </trkpt>
      <trkpt lat="47.93264" lon="7.01985">
        <ele>1208.55</ele>
        <time>2016-10-02T08:33:20Z</time>
      </trkpt>
      <trkpt lat="47.93246" lon="7.0199">
        <ele>1208.48</ele>
        <time>2016-10-02T08:33:36Z</time>
      </trkpt>
      <trkpt lat="47.9323" lon="7.01976">
        <ele>1207.39</ele>
        <time>2016-10-02T08:33:53Z</time>
      </trkpt>
      <trkpt lat="47.93212" lon="7.01971">
        <ele>1206.55</ele>
        <time>2016-10-02T08:34:13Z</time>
      </trkpt>
      <trkpt lat="47.93195" lon="7.01968">
        <ele>1206.61</ele>
        <time>2016-10-02T08:35:19Z</time>
      </trkpt>
      <trkpt lat="47.93179" lon="7.0196">
        <ele>1208.13</ele>
        <time>2016-10-02T08:35:44Z</time>
      </trkpt>
      <trkpt lat="47.93175" lon="7.01941">
        <ele>1207.95</ele>
        <time>2016-10-02T08:36:11Z</time>
      </trkpt>
      <trkpt lat="47.93179" lon="7.01917">
        <ele>1207.1</ele>
        <time>2016-10-02T08:36:29Z</time>
      </trkpt>
      <trkpt lat="47.93169" lon="7.01893">
        <ele>1208.58</ele>
        <time>2016-10-02T08:36:46Z</time>
      </trkpt>
      <trkpt lat="47.93162" lon="7.0187">
        <ele>1207.74</ele>
        <time>2016-10-02T08:37:02Z</time>
      </trkpt>
      <trkpt lat="47.93151" lon="7.01847">
        <ele>1208.25</ele>
        <time>2016-10-02T08:37:19Z</time>
      </trkpt>
      <trkpt lat="47.93141" lon="7.01825">
        <ele>1208.55</ele>
        <time>2016-10-02T08:37:35Z</time>
      </trkpt>
      <trkpt lat="47.9313" lon="7.01802">
        <ele>1208.28</ele>
        <time>2016-10-02T08:37:52Z</time>
      </trkpt>
      <trkpt lat="47.9312" lon="7.01779">
        <ele>1208.97</ele>
        <time>2016-10-02T08:38:07Z</time>
      </trkpt>
      <trkpt lat="47.9311" lon="7.01756">
        <ele>1208.68</ele>
        <time>2016-10-02T08:38:23Z</time>
      </trkpt>
      <trkpt lat="47.931" lon="7.01732">
        <ele>1207.57</ele>
        <time>2016-10-02T08:38:39Z</time>
      </trkpt>
      <trkpt lat="47.9309" lon="7.01708">
        <ele>1208.59</ele>
        <time>2016-10-02T08:38:55Z</time>
      </trkpt>
      <trkpt lat="47.9308" lon="7.01685">
        <ele>1208.75</ele>
        <time>2016-10-02T08:39:11Z</time>
      </trkpt>
      <trkpt lat="47.93073" lon="7.0166">
        <ele>1209.98</ele>
        <time>2016-10-02T08:39:32Z</time>
      </trkpt>
      <trkpt lat="47.93067" lon="7.01633">
        <ele>1209.78</ele>
        <time>2016-10-02T08:39:51Z</time>
      </trkpt>
      <trkpt lat="47.9306" lon="7.01606">
        <ele>1210.63</ele>
        <time>2016-10-02T08:40:08Z</time>
      </trkpt>
      <trkpt lat="47.93053" lon="7.01578">
        <ele>1208.93</ele>
        <time>2016-10-02T08:40:26Z</time>
      </trkpt>
      <trkpt lat="47.93045" lon="7.01553">
        <ele>1207.49</ele>
        <time>2016-10-02T08:40:42Z</time>
      </trkpt>
      <trkpt lat="47.93036" lon="7.01527">
        <ele>1206.56</ele>
        <time>2016-10-02T08:41:01Z</time>
      </trkpt>
      <trkpt lat="47.93027" lon="7.01501">
        <ele>1206.84</ele>
        <time>2016-10-02T08:41:17Z</time>
      </trkpt>
      <trkpt lat="47.93017" lon="7.01478">
        <ele>1205.48</ele>
        <time>2016-10-02T08:41:34Z</time>
      </trkpt>
      <trkpt lat="47.93006" lon="7.01455">
        <ele>1203.53</ele>
        <time>2016-10-02T08:41:51Z</time>
      </trkpt>
      <trkpt lat="47.92993" lon="7.01435">
        <ele>1202.15</ele>
        <time>2016-10-02T08:42:08Z</time>
      </trkpt>
      <trkpt lat="47.92981" lon="7.01413">
        <ele>1200.17</ele>
        <time>2016-10-02T08:42:25Z</time>
      </trkpt>
      <trkpt lat="47.92972" lon="7.01389">
        <ele>1198.85</ele>
        <time>2016-10-02T08:42:43Z</time>
      </trkpt>
      <trkpt lat="47.92967" lon="7.01361">
        <ele>1197.53</ele>
        <time>2016-10-02T08:43:00Z</time>
      </trkpt>
      <trkpt lat="47.92962" lon="7.01332">
        <ele>1197.84</ele>
        <time>2016-10-02T08:43:18Z</time>
      </trkpt>
      <trkpt lat="47.92954" lon="7.01307">
        <ele>1198.38</ele>
        <time>2016-10-02T08:43:36Z</time>
      </trkpt>
      <trkpt lat="47.92945" lon="7.01282">
        <ele>1197.27</ele>
        <time>2016-10-02T08:43:52Z</time>
      </trkpt>
      <trkpt lat="47.92935" lon="7.01257">
        <ele>1197.59</ele>
        <time>2016-10-02T08:44:10Z</time>
      </trkpt>
      <trkpt lat="47.92924" lon="7.01231">
        <ele>1198.25</ele>
        <time>2016-10-02T08:44:27Z</time>
      </trkpt>
      <trkpt lat="47.92911" lon="7.01212">
        <ele>1196.67</ele>
        <time>2016-10-02T08:44:44Z</time>
      </trkpt>
      <trkpt lat="47.92899" lon="7.01189">
        <ele>1195.91</ele>
        <time>2016-10-02T08:45:01Z</time>
      </trkpt>
      <trkpt lat="47.92885" lon="7.01166">
        <ele>1193.71</ele>
        <time>2016-10-02T08:45:35Z</time>
      </trkpt>
      <trkpt lat="47.92871" lon="7.01146">
        <ele>1192.14</ele>
        <time>2016-10-02T08:45:52Z</time>
      </trkpt>
      <trkpt lat="47.92857" lon="7.01126">
        <ele>1190.64</ele>
        <time>2016-10-02T08:46:19Z</time>
      </trkpt>
      <trkpt lat="47.92842" lon="7.01114">
        <ele>1189.38</ele>
        <time>2016-10-02T08:46:46Z</time>
      </trkpt>
      <trkpt lat="47.92825" lon="7.01099">
        <ele>1188.04</ele>
        <time>2016-10-02T08:47:01Z</time>
      </trkpt>
      <trkpt lat="47.92809" lon="7.01085">
        <ele>1187.03</ele>
        <time>2016-10-02T08:47:15Z</time>
      </trkpt>
      <trkpt lat="47.92793" lon="7.01069">
        <ele>1185.8</ele>
        <time>2016-10-02T08:47:29Z</time>
      </trkpt>
      <trkpt lat="47.92779" lon="7.01051">
        <ele>1185.26</ele>
        <time>2016-10-02T08:47:49Z</time>
      </trkpt>
      <trkpt lat="47.92767" lon="7.01031">
        <ele>1184.72</ele>
        <time>2016-10-02T08:48:03Z</time>
      </trkpt>
      <trkpt lat="47.92757" lon="7.01007">
        <ele>1185.79</ele>
        <time>2016-10-02T08:48:17Z</time>
      </trkpt>
      <trkpt lat="47.92748" lon="7.00982">
        <ele>1185.05</ele>
        <time>2016-10-02T08:48:30Z</time>
      </trkpt>
      <trkpt lat="47.92739" lon="7.00957">
        <ele>1184.05</ele>
        <time>2016-10-02T08:48:44Z</time>
      </trkpt>
      <trkpt lat="47.92729" lon="7.00934">
        <ele>1183.21</ele>
        <time>2016-10-02T08:49:04Z</time>
      </trkpt>
      <trkpt lat="47.92716" lon="7.00913">
        <ele>1182.13</ele>
        <time>2016-10-02T08:49:19Z</time>
      </trkpt>
      <trkpt lat="47.92702" lon="7.00894">
        <ele>1180.61</ele>
        <time>2016-10-02T08:49:33Z</time>
      </trkpt>
      <trkpt lat="47.92688" lon="7.00876">
        <ele>1180.07</ele>
        <time>2016-10-02T08:49:47Z</time>
      </trkpt>
      <trkpt lat="47.92674" lon="7.0086">
        <ele>1178.03</ele>
        <time>2016-10-02T08:50:03Z</time>
      </trkpt>
      <trkpt lat="47.92659" lon="7.00845">
        <ele>1177.55</ele>
        <time>2016-10-02T08:50:17Z</time>
      </trkpt>
      <trkpt lat="47.92642" lon="7.00835">
        <ele>1175.85</ele>
        <time>2016-10-02T08:50:31Z</time>
      </trkpt>
      <trkpt lat="47.92624" lon="7.0083">
        <ele>1174.48</ele>
        <time>2016-10-02T08:50:46Z</time>
      </trkpt>
      <trkpt lat="47.92611" lon="7.00846">
        <ele>1173.37</ele>
        <time>2016-10-02T08:51:32Z</time>
      </trkpt>
      <trkpt lat="47.92597" lon="7.00864">
        <ele>1171.66</ele>
        <time>2016-10-02T08:51:50Z</time>
      </trkpt>
      <trkpt lat="47.92581" lon="7.00879">
        <ele>1170.18</ele>
        <time>2016-10-02T08:52:06Z</time>
      </trkpt>
      <trkpt lat="47.92566" lon="7.00896">
        <ele>1169.07</ele>
        <time>2016-10-02T08:52:22Z</time>
      </trkpt>
      <trkpt lat="47.9255" lon="7.00912">
        <ele>1167.28</ele>
        <time>2016-10-02T08:52:38Z</time>
      </trkpt>
      <trkpt lat="47.92535" lon="7.00928">
        <ele>1166.89</ele>
        <time>2016-10-02T08:52:54Z</time>
      </trkpt>
      <trkpt lat="47.92524" lon="7.00927">
        <ele>1165.88</ele>
        <time>2016-10-02T08:53:19Z</time>
      </trkpt>
      <trkpt lat="47.92539" lon="7.00911">
        <ele>1164.38</ele>
        <time>2016-10-02T08:53:38Z</time>
      </trkpt>
      <trkpt lat="47.92554" lon="7.00893">
        <ele>1163.13</ele>
        <time>2016-10-02T08:53:55Z</time>
      </trkpt>
      <trkpt lat="47.92566" lon="7.00872">
        <ele>1162.45</ele>
        <time>2016-10-02T08:54:12Z</time>
      </trkpt>
      <trkpt lat="47.92576" lon="7.00848">
        <ele>1160.7</ele>
        <time>2016-10-02T08:54:28Z</time>
      </trkpt>
      <trkpt lat="47.92583" lon="7.00823">
        <ele>1158.74</ele>
        <time>2016-10-02T08:54:44Z</time>
      </trkpt>
      <trkpt lat="47.9259" lon="7.00797">
        <ele>1158.04</ele>
        <time>2016-10-02T08:55:00Z</time>
      </trkpt>
      <trkpt lat="47.92596" lon="7.00771">
        <ele>1156.51</ele>
        <time>2016-10-02T08:55:16Z</time>
      </trkpt>
      <trkpt lat="47.92601" lon="7.00744">
        <ele>1154.61</ele>
        <time>2016-10-02T08:55:32Z</time>
      </trkpt>
      <trkpt lat="47.92598" lon="7.00718">
        <ele>1153.56</ele>
        <time>2016-10-02T08:55:54Z</time>
      </trkpt>
      <trkpt lat="47.92589" lon="7.00739">
        <ele>1152.4</ele>
        <time>2016-10-02T08:56:19Z</time>
      </trkpt>
      <trkpt lat="47.92582" lon="7.00766">
        <ele>1151.45</ele>
        <time>2016-10-02T08:56:37Z</time>
      </trkpt>
      <trkpt lat="47.92573" lon="7.00792">
        <ele>1151.73</ele>
        <time>2016-10-02T08:56:57Z</time>
      </trkpt>
      <trkpt lat="47.92561" lon="7.00813">
        <ele>1150.16</ele>
        <time>2016-10-02T08:57:16Z</time>
      </trkpt>
      <trkpt lat="47.92547" lon="7.00834">
        <ele>1149.14</ele>
        <time>2016-10-02T08:57:34Z</time>
      </trkpt>
      <trkpt lat="47.92535" lon="7.00853">
        <ele>1148.91</ele>
        <time>2016-10-02T08:57:53Z</time>
      </trkpt>
      <trkpt lat="47.92518" lon="7.00867">
        <ele>1147.45</ele>
        <time>2016-10-02T08:58:13Z</time>
      </trkpt>
      <trkpt lat="47.92501" lon="7.00876">
        <ele>1146.24</ele>
        <time>2016-10-02T08:58:29Z</time>
      </trkpt>
      <trkpt lat="47.92483" lon="7.00881">
        <ele>1145.36</ele>
        <time>2016-10-02T08:58:46Z</time>
      </trkpt>
      <trkpt lat="47.92464" lon="7.00882">
        <ele>1144.07</ele>
        <time>2016-10-02T08:59:03Z</time>
      </trkpt>
      <trkpt lat="47.92446" lon="7.00883">
        <ele>1143.01</ele>
        <time>2016-10-02T08:59:19Z</time>
      </trkpt>
      <trkpt lat="47.92428" lon="7.00885">
        <ele>1141.73</ele>
        <time>2016-10-02T08:59:34Z</time>
      </trkpt>
      <trkpt lat="47.9241" lon="7.00886">
        <ele>1140.31</ele>
        <time>2016-10-02T08:59:50Z</time>
      </trkpt>
      <trkpt lat="47.92393" lon="7.00888">
        <ele>1139.26</ele>
        <time>2016-10-02T09:00:06Z</time>
      </trkpt>
      <trkpt lat="47.92374" lon="7.00894">
        <ele>1138.6</ele>
        <time>2016-10-02T09:00:23Z</time>
      </trkpt>
      <trkpt lat="47.92357" lon="7.00898">
        <ele>1137.35</ele>
        <time>2016-10-02T09:00:43Z</time>
      </trkpt>
      <trkpt lat="47.92338" lon="7.00905">
        <ele>1138.53</ele>
        <time>2016-10-02T09:01:01Z</time>
      </trkpt>
      <trkpt lat="47.92321" lon="7.00913">
        <ele>1138.16</ele>
        <time>2016-10-02T09:01:21Z</time>
      </trkpt>
      <trkpt lat="47.92316" lon="7.00927">
        <ele>1140.52</ele>
        <time>2016-10-02T09:02:25Z</time>
      </trkpt>
      <trkpt lat="47.9232" lon="7.00934">
        <ele>1141.25</ele>
        <time>2016-10-02T09:07:28Z</time>
      </trkpt>
      <trkpt lat="47.92333" lon="7.00949">
        <ele>1144.44</ele>
        <time>2016-10-02T09:08:24Z</time>
      </trkpt>
      <trkpt lat="47.92347" lon="7.00969">
        <ele>1146.57</ele>
        <time>2016-10-02T09:08:42Z</time>
      </trkpt>
      <trkpt lat="47.92357" lon="7.00993">
        <ele>1149.37</ele>
        <time>2016-10-02T09:09:00Z</time>
      </trkpt>
      <trkpt lat="47.92362" lon="7.01022">
        <ele>1150.71</ele>
        <time>2016-10-02T09:09:17Z</time>
      </trkpt>
      <trkpt lat="47.92365" lon="7.0105">
        <ele>1151.47</ele>
        <time>2016-10-02T09:09:33Z</time>
      </trkpt>
      <trkpt lat="47.92366" lon="7.01076">
        <ele>1152.53</ele>
        <time>2016-10-02T09:09:49Z</time>
      </trkpt>
      <trkpt lat="47.92363" lon="7.01103">
        <ele>1154.4</ele>
        <time>2016-10-02T09:10:06Z</time>
      </trkpt>
      <trkpt lat="47.92363" lon="7.01132">
        <ele>1155.65</ele>
        <time>2016-10-02T09:10:24Z</time>
      </trkpt>
      <trkpt lat="47.92363" lon="7.0116">
        <ele>1157.11</ele>
        <time>2016-10-02T09:10:41Z</time>
      </trkpt>
      <trkpt lat="47.92362" lon="7.01187">
        <ele>1158.13</ele>
        <time>2016-10-02T09:10:57Z</time>
      </trkpt>
      <trkpt lat="47.92363" lon="7.01215">
        <ele>1159.04</ele>
        <time>2016-10-02T09:11:14Z</time>
      </trkpt>
      <trkpt lat="47.92367" lon="7.01244">
        <ele>1159.78</ele>
        <time>2016-10-02T09:11:37Z</time>
      </trkpt>
      <trkpt lat="47.92375" lon="7.01278">
        <ele>1162.71</ele>
        <time>2016-10-02T09:12:02Z</time>
      </trkpt>
      <trkpt lat="47.92387" lon="7.01311">
        <ele>1165.04</ele>
        <time>2016-10-02T09:12:24Z</time>
      </trkpt>
      <trkpt lat="47.92398" lon="7.01336">
        <ele>1168.79</ele>
        <time>2016-10-02T09:12:45Z</time>
      </trkpt>
      <trkpt lat="47.92404" lon="7.01368">
        <ele>1169.64</ele>
        <time>2016-10-02T09:13:15Z</time>
      </trkpt>
      <trkpt lat="47.9242" lon="7.01391">
        <ele>1169.64</ele>
        <time>2016-10-02T09:13:41Z</time>
      </trkpt>
      <trkpt lat="47.92437" lon="7.01418">
        <ele>1168.21</ele>
        <time>2016-10-02T09:14:10Z</time>
      </trkpt>
      <trkpt lat="47.92452" lon="7.01445">
        <ele>1167.39</ele>
        <time>2016-10-02T09:14:38Z</time>
      </trkpt>
      <trkpt lat="47.92462" lon="7.01481">
        <ele>1168.61</ele>
        <time>2016-10-02T09:15:04Z</time>
      </trkpt>
      <trkpt lat="47.92465" lon="7.0152">
        <ele>1171.61</ele>
        <time>2016-10-02T09:15:34Z</time>
      </trkpt>
      <trkpt lat="47.92463" lon="7.01556">
        <ele>1173.35</ele>
        <time>2016-10-02T09:15:55Z</time>
      </trkpt>
      <trkpt lat="47.92459" lon="7.0159">
        <ele>1173.82</ele>
        <time>2016-10-02T09:16:18Z</time>
      </trkpt>
      <trkpt lat="47.92456" lon="7.01624">
        <ele>1175.39</ele>
        <time>2016-10-02T09:16:42Z</time>
      </trkpt>
      <trkpt lat="47.92448" lon="7.01655">
        <ele>1175.8</ele>
        <time>2016-10-02T09:17:06Z</time>
      </trkpt>
      <trkpt lat="47.92445" lon="7.01691">
        <ele>1175.66</ele>
        <time>2016-10-02T09:17:29Z</time>
      </trkpt>
      <trkpt lat="47.92441" lon="7.01721">
        <ele>1178.27</ele>
        <time>2016-10-02T09:17:50Z</time>
      </trkpt>
      <trkpt lat="47.92437" lon="7.01756">
        <ele>1178.47</ele>
        <time>2016-10-02T09:18:14Z</time>
      </trkpt>
      <trkpt lat="47.92431" lon="7.01794">
        <ele>1181.5</ele>
        <time>2016-10-02T09:18:42Z</time>
      </trkpt>
      <trkpt lat="47.92429" lon="7.01832">
        <ele>1184.33</ele>
        <time>2016-10-02T09:19:07Z</time>
      </trkpt>
      <trkpt lat="47.92428" lon="7.01869">
        <ele>1185.23</ele>
        <time>2016-10-02T09:19:34Z</time>
      </trkpt>
      <trkpt lat="47.92429" lon="7.01901">
        <ele>1187.72</ele>
        <time>2016-10-02T09:20:15Z</time>
      </trkpt>
      <trkpt lat="47.92431" lon="7.01933">
        <ele>1190.23</ele>
        <time>2016-10-02T09:20:56Z</time>
      </trkpt>
      <trkpt lat="47.92438" lon="7.01963">
        <ele>1192.16</ele>
        <time>2016-10-02T09:21:17Z</time>
      </trkpt>
      <trkpt lat="47.92453" lon="7.01989">
        <ele>1192.16</ele>
        <time>2016-10-02T09:21:46Z</time>
      </trkpt>
      <trkpt lat="47.92471" lon="7.02009">
        <ele>1194.4</ele>
        <time>2016-10-02T09:22:18Z</time>
      </trkpt>
      <trkpt lat="47.92475" lon="7.0204">
        <ele>1194.84</ele>
        <time>2016-10-02T09:22:44Z</time>
      </trkpt>
      <trkpt lat="47.92468" lon="7.02073">
        <ele>1196.7</ele>
        <time>2016-10-02T09:23:03Z</time>
      </trkpt>
      <trkpt lat="47.92461" lon="7.02099">
        <ele>1199.13</ele>
        <time>2016-10-02T09:23:23Z</time>
      </trkpt>
      <trkpt lat="47.92455" lon="7.02125">
        <ele>1199.05</ele>
        <time>2016-10-02T09:23:51Z</time>
      </trkpt>
      <trkpt lat="47.92447" lon="7.02147">
        <ele>1197.91</ele>
        <time>2016-10-02T09:24:07Z</time>
      </trkpt>
      <trkpt lat="47.92436" lon="7.02167">
        <ele>1194.39</ele>
        <time>2016-10-02T09:24:38Z</time>
      </trkpt>
      <trkpt lat="47.92415" lon="7.02184">
        <ele>1191.19</ele>
        <time>2016-10-02T09:25:09Z</time>
      </trkpt>
      <trkpt lat="47.92391" lon="7.02207">
        <ele>1186.42</ele>
        <time>2016-10-02T09:25:37Z</time>
      </trkpt>
      <trkpt lat="47.92374" lon="7.02233">
        <ele>1187.31</ele>
        <time>2016-10-02T09:26:05Z</time>
      </trkpt>
      <trkpt lat="47.9235" lon="7.02254">
        <ele>1181.76</ele>
        <time>2016-10-02T09:26:34Z</time>
      </trkpt>
      <trkpt lat="47.92333" lon="7.02276">
        <ele>1178.67</ele>
        <time>2016-10-02T09:27:00Z</time>
      </trkpt>
      <trkpt lat="47.92324" lon="7.02308">
        <ele>1181.32</ele>
        <time>2016-10-02T09:27:25Z</time>
      </trkpt>
      <trkpt lat="47.92308" lon="7.02341">
        <ele>1181.12</ele>
        <time>2016-10-02T09:27:52Z</time>
      </trkpt>
      <trkpt lat="47.92303" lon="7.02373">
        <ele>1183.26</ele>
        <time>2016-10-02T09:28:17Z</time>
      </trkpt>
      <trkpt lat="47.92299" lon="7.02405">
        <ele>1181.64</ele>
        <time>2016-10-02T09:28:43Z</time>
      </trkpt>
      <trkpt lat="47.92307" lon="7.0244">
        <ele>1182.24</ele>
        <time>2016-10-02T09:29:12Z</time>
      </trkpt>
      <trkpt lat="47.9231" lon="7.02483">
        <ele>1180.14</ele>
        <time>2016-10-02T09:29:42Z</time>
      </trkpt>
      <trkpt lat="47.92308" lon="7.02521">
        <ele>1181.22</ele>
        <time>2016-10-02T09:30:05Z</time>
      </trkpt>
      <trkpt lat="47.92308" lon="7.02555">
        <ele>1181.77</ele>
        <time>2016-10-02T09:30:29Z</time>
      </trkpt>
      <trkpt lat="47.92311" lon="7.02585">
        <ele>1182.44</ele>
        <time>2016-10-02T09:30:53Z</time>
      </trkpt>
      <trkpt lat="47.92315" lon="7.02619">
        <ele>1182.01</ele>
        <time>2016-10-02T09:31:20Z</time>
      </trkpt>
      <trkpt lat="47.9232" lon="7.02652">
        <ele>1184.69</ele>
        <time>2016-10-02T09:31:43Z</time>
      </trkpt>
      <trkpt lat="47.92321" lon="7.02683">
        <ele>1184.04</ele>
        <time>2016-10-02T09:32:13Z</time>
      </trkpt>
      <trkpt lat="47.92328" lon="7.0271">
        <ele>1185.34</ele>
        <time>2016-10-02T09:32:29Z</time>
      </trkpt>
      <trkpt lat="47.92331" lon="7.02736">
        <ele>1187.32</ele>
        <time>2016-10-02T09:32:44Z</time>
      </trkpt>
      <trkpt lat="47.92338" lon="7.02762">
        <ele>1189.57</ele>
        <time>2016-10-02T09:33:03Z</time>
      </trkpt>
      <trkpt lat="47.92348" lon="7.02787">
        <ele>1194.49</ele>
        <time>2016-10-02T09:33:31Z</time>
      </trkpt>
      <trkpt lat="47.92356" lon="7.0281">
        <ele>1198.24</ele>
        <time>2016-10-02T09:33:52Z</time>
      </trkpt>
      <trkpt lat="47.92365" lon="7.02833">
        <ele>1200.97</ele>
        <time>2016-10-02T09:34:17Z</time>
      </trkpt>
      <trkpt lat="47.92364" lon="7.02859">
        <ele>1201.31</ele>
        <time>2016-10-02T09:34:40Z</time>
      </trkpt>
      <trkpt lat="47.92359" lon="7.02883">
        <ele>1200.27</ele>
        <time>2016-10-02T09:35:13Z</time>
      </trkpt>
      <trkpt lat="47.92363" lon="7.02906">
        <ele>1200.21</ele>
        <time>2016-10-02T09:35:42Z</time>
      </trkpt>
      <trkpt lat="47.92357" lon="7.02933">
        <ele>1200.74</ele>
        <time>2016-10-02T09:35:58Z</time>
      </trkpt>
      <trkpt lat="47.92355" lon="7.02961">
        <ele>1200.9</ele>
        <time>2016-10-02T09:36:16Z</time>
      </trkpt>
      <trkpt lat="47.92362" lon="7.02981">
        <ele>1198.93</ele>
        <time>2016-10-02T09:36:39Z</time>
      </trkpt>
      <trkpt lat="47.92374" lon="7.02987">
        <ele>1198.3</ele>
        <time>2016-10-02T09:39:12Z</time>
      </trkpt>
      <trkpt lat="47.92367" lon="7.02993">
        <ele>1198.57</ele>
        <time>2016-10-02T09:40:09Z</time>
      </trkpt>
      <trkpt lat="47.92374" lon="7.02991">
        <ele>1198.74</ele>
        <time>2016-10-02T09:40:43Z</time>
      </trkpt>
      <trkpt lat="47.92357" lon="7.03003">
        <ele>1197.44</ele>
        <time>2016-10-02T09:40:57Z</time>
      </trkpt>
      <trkpt lat="47.92342" lon="7.03021">
        <ele>1197.97</ele>
        <time>2016-10-02T09:41:13Z</time>
      </trkpt>
      <trkpt lat="47.92327" lon="7.03038">
        <ele>1197.26</ele>
        <time>2016-10-02T09:41:29Z</time>
      </trkpt>
      <trkpt lat="47.92314" lon="7.03058">
        <ele>1195.11</ele>
        <time>2016-10-02T09:41:45Z</time>
      </trkpt>
      <trkpt lat="47.92305" lon="7.03082">
        <ele>1193.68</ele>
        <time>2016-10-02T09:42:01Z</time>
      </trkpt>
      <trkpt lat="47.92297" lon="7.03106">
        <ele>1192.49</ele>
        <time>2016-10-02T09:42:16Z</time>
      </trkpt>
      <trkpt lat="47.92289" lon="7.03133">
        <ele>1191.31</ele>
        <time>2016-10-02T09:42:32Z</time>
      </trkpt>
      <trkpt lat="47.92286" lon="7.03159">
        <ele>1191.07</ele>
        <time>2016-10-02T09:42:48Z</time>
      </trkpt>
      <trkpt lat="47.92294" lon="7.03184">
        <ele>1189.37</ele>
        <time>2016-10-02T09:43:06Z</time>
      </trkpt>
      <trkpt lat="47.9231" lon="7.03191">
        <ele>1188.63</ele>
        <time>2016-10-02T09:43:33Z</time>
      </trkpt>
      <trkpt lat="47.92314" lon="7.03216">
        <ele>1187.91</ele>
        <time>2016-10-02T09:43:52Z</time>
      </trkpt>
      <trkpt lat="47.92315" lon="7.03244">
        <ele>1186.92</ele>
        <time>2016-10-02T09:44:11Z</time>
      </trkpt>
      <trkpt lat="47.9232" lon="7.03271">
        <ele>1186.99</ele>
        <time>2016-10-02T09:44:28Z</time>
      </trkpt>
      <trkpt lat="47.92324" lon="7.03297">
        <ele>1185.93</ele>
        <time>2016-10-02T09:44:44Z</time>
      </trkpt>
      <trkpt lat="47.9233" lon="7.03324">
        <ele>1184.37</ele>
        <time>2016-10-02T09:45:01Z</time>
      </trkpt>
      <trkpt lat="47.92335" lon="7.0335">
        <ele>1184.37</ele>
        <time>2016-10-02T09:45:17Z</time>
      </trkpt>
      <trkpt lat="47.9234" lon="7.03377">
        <ele>1183.77</ele>
        <time>2016-10-02T09:45:34Z</time>
      </trkpt>
      <trkpt lat="47.92345" lon="7.03403">
        <ele>1182.6</ele>
        <time>2016-10-02T09:45:51Z</time>
      </trkpt>
      <trkpt lat="47.92355" lon="7.03424">
        <ele>1181.26</ele>
        <time>2016-10-02T09:46:10Z</time>
      </trkpt>
      <trkpt lat="47.92372" lon="7.03409">
        <ele>1181.12</ele>
        <time>2016-10-02T09:46:29Z</time>
      </trkpt>
      <trkpt lat="47.92387" lon="7.03393">
        <ele>1181.93</ele>
        <time>2016-10-02T09:46:46Z</time>
      </trkpt>
      <trkpt lat="47.92401" lon="7.03374">
        <ele>1180.6</ele>
        <time>2016-10-02T09:47:03Z</time>
      </trkpt>
      <trkpt lat="47.92411" lon="7.03351">
        <ele>1178.86</ele>
        <time>2016-10-02T09:47:20Z</time>
      </trkpt>
      <trkpt lat="47.9242" lon="7.03328">
        <ele>1176.9</ele>
        <time>2016-10-02T09:47:37Z</time>
      </trkpt>
      <trkpt lat="47.92432" lon="7.03307">
        <ele>1176.3</ele>
        <time>2016-10-02T09:47:54Z</time>
      </trkpt>
      <trkpt lat="47.92445" lon="7.03289">
        <ele>1176.15</ele>
        <time>2016-10-02T09:48:11Z</time>
      </trkpt>
      <trkpt lat="47.9246" lon="7.03271">
        <ele>1173.96</ele>
        <time>2016-10-02T09:48:29Z</time>
      </trkpt>
      <trkpt lat="47.92475" lon="7.03254">
        <ele>1173.07</ele>
        <time>2016-10-02T09:48:47Z</time>
      </trkpt>
      <trkpt lat="47.92491" lon="7.03239">
        <ele>1171.66</ele>
        <time>2016-10-02T09:49:07Z</time>
      </trkpt>
      <trkpt lat="47.92505" lon="7.0322">
        <ele>1170.18</ele>
        <time>2016-10-02T09:49:25Z</time>
      </trkpt>
      <trkpt lat="47.92521" lon="7.03203">
        <ele>1168.95</ele>
        <time>2016-10-02T09:49:44Z</time>
      </trkpt>
      <trkpt lat="47.92538" lon="7.0319">
        <ele>1168.4</ele>
        <time>2016-10-02T09:50:06Z</time>
      </trkpt>
      <trkpt lat="47.92555" lon="7.03206">
        <ele>1163.96</ele>
        <time>2016-10-02T09:50:32Z</time>
      </trkpt>
      <trkpt lat="47.92569" lon="7.03226">
        <ele>1162.8</ele>
        <time>2016-10-02T09:50:56Z</time>
      </trkpt>
      <trkpt lat="47.92587" lon="7.0324">
        <ele>1158.38</ele>
        <time>2016-10-02T09:51:22Z</time>
      </trkpt>
      <trkpt lat="47.92598" lon="7.0327">
        <ele>1154.07</ele>
        <time>2016-10-02T09:51:45Z</time>
      </trkpt>
      <trkpt lat="47.92611" lon="7.03291">
        <ele>1150.31</ele>
        <time>2016-10-02T09:52:10Z</time>
      </trkpt>
      <trkpt lat="47.9263" lon="7.03301">
        <ele>1143.15</ele>
        <time>2016-10-02T09:52:38Z</time>
      </trkpt>
      <trkpt lat="47.9265" lon="7.03311">
        <ele>1135.8</ele>
        <time>2016-10-02T09:53:09Z</time>
      </trkpt>
      <trkpt lat="47.92668" lon="7.03324">
        <ele>1129.79</ele>
        <time>2016-10-02T09:53:37Z</time>
      </trkpt>
      <trkpt lat="47.92686" lon="7.0334">
        <ele>1124.34</ele>
        <time>2016-10-02T09:54:04Z</time>
      </trkpt>
      <trkpt lat="47.92696" lon="7.03353">
        <ele>1117.93</ele>
        <time>2016-10-02T09:54:34Z</time>
      </trkpt>
      <trkpt lat="47.92718" lon="7.03368">
        <ele>1111.82</ele>
        <time>2016-10-02T09:55:09Z</time>
      </trkpt>
      <trkpt lat="47.92738" lon="7.03389">
        <ele>1108.18</ele>
        <time>2016-10-02T09:55:35Z</time>
      </trkpt>
      <trkpt lat="47.92749" lon="7.03426">
        <ele>1105.79</ele>
        <time>2016-10-02T09:56:04Z</time>
      </trkpt>
      <trkpt lat="47.92756" lon="7.03459">
        <ele>1102.64</ele>
        <time>2016-10-02T09:56:31Z</time>
      </trkpt>
      <trkpt lat="47.92762" lon="7.03493">
        <ele>1101</ele>
        <time>2016-10-02T09:56:57Z</time>
      </trkpt>
      <trkpt lat="47.92767" lon="7.03524">
        <ele>1097.66</ele>
        <time>2016-10-02T09:57:20Z</time>
      </trkpt>
      <trkpt lat="47.9279" lon="7.03533">
        <ele>1095.22</ele>
        <time>2016-10-02T09:57:44Z</time>
      </trkpt>
      <trkpt lat="47.92812" lon="7.03537">
        <ele>1090.78</ele>
        <time>2016-10-02T09:58:10Z</time>
      </trkpt>
      <trkpt lat="47.92834" lon="7.03548">
        <ele>1088.24</ele>
        <time>2016-10-02T09:58:34Z</time>
      </trkpt>
      <trkpt lat="47.92856" lon="7.03569">
        <ele>1085.37</ele>
        <time>2016-10-02T09:58:59Z</time>
      </trkpt>
      <trkpt lat="47.92876" lon="7.03587">
        <ele>1081.8</ele>
        <time>2016-10-02T09:59:30Z</time>
      </trkpt>
      <trkpt lat="47.92896" lon="7.036">
        <ele>1077.63</ele>
        <time>2016-10-02T10:00:04Z</time>
      </trkpt>
      <trkpt lat="47.92914" lon="7.03601">
        <ele>1074.19</ele>
        <time>2016-10-02T10:00:27Z</time>
      </trkpt>
      <trkpt lat="47.92925" lon="7.03627">
        <ele>1071.09</ele>
        <time>2016-10-02T10:00:55Z</time>
      </trkpt>
      <trkpt lat="47.92952" lon="7.03639">
        <ele>1065.25</ele>
        <time>2016-10-02T10:01:30Z</time>
      </trkpt>
      <trkpt lat="47.92971" lon="7.03664">
        <ele>1059.98</ele>
        <time>2016-10-02T10:01:59Z</time>
      </trkpt>
      <trkpt lat="47.92988" lon="7.03689">
        <ele>1058.2</ele>
        <time>2016-10-02T10:02:27Z</time>
      </trkpt>
      <trkpt lat="47.93006" lon="7.03709">
        <ele>1054.7</ele>
        <time>2016-10-02T10:02:52Z</time>
      </trkpt>
      <trkpt lat="47.93022" lon="7.03725">
        <ele>1050.64</ele>
        <time>2016-10-02T10:03:54Z</time>
      </trkpt>
      <trkpt lat="47.93034" lon="7.03734">
        <ele>1045.55</ele>
        <time>2016-10-02T10:04:58Z</time>
      </trkpt>
      <trkpt lat="47.93056" lon="7.03752">
        <ele>1041.23</ele>
        <time>2016-10-02T10:05:37Z</time>
      </trkpt>
      <trkpt lat="47.93072" lon="7.03768">
        <ele>1039.58</ele>
        <time>2016-10-02T10:06:13Z</time>
      </trkpt>
      <trkpt lat="47.93087" lon="7.03776">
        <ele>1036.29</ele>
        <time>2016-10-02T10:07:17Z</time>
      </trkpt>
      <trkpt lat="47.93101" lon="7.03793">
        <ele>1032.36</ele>
        <time>2016-10-02T10:08:05Z</time>
      </trkpt>
      <trkpt lat="47.93122" lon="7.03826">
        <ele>1027.79</ele>
        <time>2016-10-02T10:08:42Z</time>
      </trkpt>
      <trkpt lat="47.93141" lon="7.03865">
        <ele>1022.47</ele>
        <time>2016-10-02T10:09:15Z</time>
      </trkpt>
      <trkpt lat="47.93164" lon="7.0389">
        <ele>1017.17</ele>
        <time>2016-10-02T10:09:50Z</time>
      </trkpt>
      <trkpt lat="47.93184" lon="7.039">
        <ele>1009.15</ele>
        <time>2016-10-02T10:10:31Z</time>
      </trkpt>
      <trkpt lat="47.93203" lon="7.03915">
        <ele>1002.47</ele>
        <time>2016-10-02T10:11:08Z</time>
      </trkpt>
      <trkpt lat="47.93224" lon="7.03925">
        <ele>996.95</ele>
        <time>2016-10-02T10:11:49Z</time>
      </trkpt>
      <trkpt lat="47.93247" lon="7.03936">
        <ele>989.75</ele>
        <time>2016-10-02T10:12:26Z</time>
      </trkpt>
      <trkpt lat="47.93267" lon="7.03955">
        <ele>983.27</ele>
        <time>2016-10-02T10:12:58Z</time>
      </trkpt>
      <trkpt lat="47.93287" lon="7.03959">
        <ele>976.06</ele>
        <time>2016-10-02T10:13:36Z</time>
      </trkpt>
      <trkpt lat="47.93308" lon="7.03956">
        <ele>968.68</ele>
        <time>2016-10-02T10:14:14Z</time>
      </trkpt>
      <trkpt lat="47.93331" lon="7.03964">
        <ele>963.87</ele>
        <time>2016-10-02T10:14:51Z</time>
      </trkpt>
      <trkpt lat="47.93352" lon="7.03965">
        <ele>958.61</ele>
        <time>2016-10-02T10:15:25Z</time>
      </trkpt>
      <trkpt lat="47.93372" lon="7.03976">
        <ele>954.16</ele>
        <time>2016-10-02T10:15:57Z</time>
      </trkpt>
      <trkpt lat="47.93397" lon="7.03989">
        <ele>950.14</ele>
        <time>2016-10-02T10:16:28Z</time>
      </trkpt>
      <trkpt lat="47.93406" lon="7.04027">
        <ele>951.51</ele>
        <time>2016-10-02T10:16:47Z</time>
      </trkpt>
      <trkpt lat="47.93407" lon="7.0406">
        <ele>951.16</ele>
        <time>2016-10-02T10:17:08Z</time>
      </trkpt>
      <trkpt lat="47.93404" lon="7.04096">
        <ele>950.59</ele>
        <time>2016-10-02T10:17:29Z</time>
      </trkpt>
      <trkpt lat="47.93402" lon="7.04125">
        <ele>951.1</ele>
        <time>2016-10-02T10:17:50Z</time>
      </trkpt>
      <trkpt lat="47.93393" lon="7.04161">
        <ele>951.24</ele>
        <time>2016-10-02T10:18:15Z</time>
      </trkpt>
      <trkpt lat="47.93391" lon="7.04195">
        <ele>950.93</ele>
        <time>2016-10-02T10:18:36Z</time>
      </trkpt>
      <trkpt lat="47.93392" lon="7.04231">
        <ele>950.42</ele>
        <time>2016-10-02T10:18:57Z</time>
      </trkpt>
      <trkpt lat="47.93398" lon="7.04264">
        <ele>949.65</ele>
        <time>2016-10-02T10:19:14Z</time>
      </trkpt>
      <trkpt lat="47.93403" lon="7.04293">
        <ele>948.63</ele>
        <time>2016-10-02T10:19:32Z</time>
      </trkpt>
      <trkpt lat="47.93401" lon="7.04324">
        <ele>946.47</ele>
        <time>2016-10-02T10:19:51Z</time>
      </trkpt>
      <trkpt lat="47.93406" lon="7.04354">
        <ele>945.73</ele>
        <time>2016-10-02T10:20:10Z</time>
      </trkpt>
      <trkpt lat="47.93409" lon="7.04386">
        <ele>945.14</ele>
        <time>2016-10-02T10:20:28Z</time>
      </trkpt>
      <trkpt lat="47.93414" lon="7.04418">
        <ele>944.72</ele>
        <time>2016-10-02T10:20:46Z</time>
      </trkpt>
      <trkpt lat="47.93421" lon="7.04447">
        <ele>943.98</ele>
        <time>2016-10-02T10:21:04Z</time>
      </trkpt>
      <trkpt lat="47.93419" lon="7.04471">
        <ele>943.6</ele>
        <time>2016-10-02T10:21:38Z</time>
      </trkpt>
      <trkpt lat="47.93414" lon="7.04499">
        <ele>943.7</ele>
        <time>2016-10-02T10:21:56Z</time>
      </trkpt>
      <trkpt lat="47.93409" lon="7.0453">
        <ele>943.17</ele>
        <time>2016-10-02T10:22:17Z</time>
      </trkpt>
      <trkpt lat="47.93405" lon="7.0454">
        <ele>943.22</ele>
        <time>2016-10-02T10:23:08Z</time>
      </trkpt>
      <trkpt lat="47.93398" lon="7.04567">
        <ele>942.98</ele>
        <time>2016-10-02T10:23:26Z</time>
      </trkpt>
      <trkpt lat="47.93402" lon="7.04591">
        <ele>943.33</ele>
        <time>2016-10-02T10:23:56Z</time>
      </trkpt>
      <trkpt lat="47.9342" lon="7.04575">
        <ele>946.3</ele>
        <time>2016-10-02T10:24:21Z</time>
      </trkpt>
      <trkpt lat="47.93437" lon="7.04568">
        <ele>945.8</ele>
        <time>2016-10-02T10:24:36Z</time>
      </trkpt>
      <trkpt lat="47.93456" lon="7.04566">
        <ele>943.72</ele>
        <time>2016-10-02T10:24:52Z</time>
      </trkpt>
      <trkpt lat="47.93476" lon="7.04568">
        <ele>944.94</ele>
        <time>2016-10-02T10:25:08Z</time>
      </trkpt>
      <trkpt lat="47.93492" lon="7.04566">
        <ele>945.44</ele>
        <time>2016-10-02T10:25:41Z</time>
      </trkpt>
      <trkpt lat="47.93512" lon="7.04563">
        <ele>946.21</ele>
        <time>2016-10-02T10:25:58Z</time>
      </trkpt>
      <trkpt lat="47.93532" lon="7.04561">
        <ele>944.05</ele>
        <time>2016-10-02T10:26:14Z</time>
      </trkpt>
      <trkpt lat="47.93551" lon="7.04558">
        <ele>946.65</ele>
        <time>2016-10-02T10:26:29Z</time>
      </trkpt>
      <trkpt lat="47.9357" lon="7.0456">
        <ele>947.66</ele>
        <time>2016-10-02T10:26:45Z</time>
      </trkpt>
      <trkpt lat="47.93589" lon="7.04562">
        <ele>946.48</ele>
        <time>2016-10-02T10:27:00Z</time>
      </trkpt>
      <trkpt lat="47.93606" lon="7.04565">
        <ele>943.01</ele>
        <time>2016-10-02T10:27:25Z</time>
      </trkpt>
      <trkpt lat="47.93597" lon="7.04591">
        <ele>939.82</ele>
        <time>2016-10-02T10:27:53Z</time>
      </trkpt>
      <trkpt lat="47.93609" lon="7.04589">
        <ele>939.99</ele>
        <time>2016-10-02T10:28:44Z</time>
      </trkpt>
      <trkpt lat="47.93607" lon="7.04589">
        <ele>940.48</ele>
        <time>2016-10-02T10:30:17Z</time>
      </trkpt>
      <trkpt lat="47.93595" lon="7.04601">
        <ele>938.66</ele>
        <time>2016-10-02T10:31:00Z</time>
      </trkpt>
      <trkpt lat="47.93583" lon="7.04586">
        <ele>938.55</ele>
        <time>2016-10-02T10:31:22Z</time>
      </trkpt>
      <trkpt lat="47.93584" lon="7.04564">
        <ele>939.57</ele>
        <time>2016-10-02T10:32:05Z</time>
      </trkpt>
      <trkpt lat="47.93582" lon="7.04571">
        <ele>937.19</ele>
        <time>2016-10-02T10:33:11Z</time>
      </trkpt>
      <trkpt lat="47.93588" lon="7.0456">
        <ele>937.87</ele>
        <time>2016-10-02T10:34:52Z</time>
      </trkpt>
      <trkpt lat="47.93586" lon="7.0456">
        <ele>937.05</ele>
        <time>2016-10-02T10:36:11Z</time>
      </trkpt>
      <trkpt lat="47.9359" lon="7.04558">
        <ele>929.49</ele>
        <time>2016-10-02T10:37:06Z</time>
      </trkpt>
      <trkpt lat="47.93587" lon="7.04565">
        <ele>937.51</ele>
        <time>2016-10-02T10:38:00Z</time>
      </trkpt>
      <trkpt lat="47.93589" lon="7.0456">
        <ele>938.11</ele>
        <time>2016-10-02T10:39:05Z</time>
      </trkpt>
      <trkpt lat="47.93585" lon="7.04566">
        <ele>937.52</ele>
        <time>2016-10-02T10:40:49Z</time>
      </trkpt>
      <trkpt lat="47.93586" lon="7.04561">
        <ele>935.84</ele>
        <time>2016-10-02T10:42:23Z</time>
      </trkpt>
      <trkpt lat="47.9358" lon="7.04567">
        <ele>934.53</ele>
        <time>2016-10-02T10:43:24Z</time>
      </trkpt>
      <trkpt lat="47.93586" lon="7.04564">
        <ele>935.57</ele>
        <time>2016-10-02T10:44:39Z</time>
      </trkpt>
      <trkpt lat="47.93587" lon="7.04563">
        <ele>936.68</ele>
        <time>2016-10-02T10:47:56Z</time>
      </trkpt>
      <trkpt lat="47.93583" lon="7.04566">
        <ele>936.16</ele>
        <time>2016-10-02T10:48:56Z</time>
      </trkpt>
      <trkpt lat="47.93585" lon="7.04569">
        <ele>934.34</ele>
        <time>2016-10-02T10:50:02Z</time>
      </trkpt>
      <trkpt lat="47.93588" lon="7.04557">
        <ele>935.87</ele>
        <time>2016-10-02T10:51:04Z</time>
      </trkpt>
      <trkpt lat="47.93584" lon="7.04572">
        <ele>934.91</ele>
        <time>2016-10-02T10:51:59Z</time>
      </trkpt>
      <trkpt lat="47.93586" lon="7.04563">
        <ele>934.33</ele>
        <time>2016-10-02T10:52:39Z</time>
      </trkpt>
      <trkpt lat="47.93586" lon="7.04556">
        <ele>936.15</ele>
        <time>2016-10-02T10:53:53Z</time>
      </trkpt>
      <trkpt lat="47.93585" lon="7.04565">
        <ele>933.72</ele>
        <time>2016-10-02T10:54:43Z</time>
      </trkpt>
      <trkpt lat="47.93588" lon="7.04562">
        <ele>933.29</ele>
        <time>2016-10-02T10:55:28Z</time>
      </trkpt>
      <trkpt lat="47.93589" lon="7.04559">
        <ele>934.47</ele>
        <time>2016-10-02T10:56:42Z</time>
      </trkpt>
      <trkpt lat="47.93586" lon="7.04565">
        <ele>934.52</ele>
        <time>2016-10-02T10:57:43Z</time>
      </trkpt>
      <trkpt lat="47.93585" lon="7.0458">
        <ele>932.06</ele>
        <time>2016-10-02T10:58:59Z</time>
      </trkpt>
      <trkpt lat="47.93582" lon="7.04574">
        <ele>934.08</ele>
        <time>2016-10-02T10:59:48Z</time>
      </trkpt>
      <trkpt lat="47.93586" lon="7.04574">
        <ele>931.61</ele>
        <time>2016-10-02T11:00:59Z</time>
      </trkpt>
      <trkpt lat="47.93588" lon="7.04588">
        <ele>935.8</ele>
        <time>2016-10-02T11:01:41Z</time>
      </trkpt>
      <trkpt lat="47.93585" lon="7.04576">
        <ele>933.61</ele>
        <time>2016-10-02T11:02:16Z</time>
      </trkpt>
      <trkpt lat="47.93597" lon="7.04597">
        <ele>935.08</ele>
        <time>2016-10-02T11:02:41Z</time>
      </trkpt>
      <trkpt lat="47.93595" lon="7.04595">
        <ele>934.21</ele>
        <time>2016-10-02T11:03:31Z</time>
      </trkpt>
      <trkpt lat="47.93588" lon="7.04581">
        <ele>932.6</ele>
        <time>2016-10-02T11:03:48Z</time>
      </trkpt>
      <trkpt lat="47.93588" lon="7.04567">
        <ele>937.03</ele>
        <time>2016-10-02T11:04:28Z</time>
      </trkpt>
      <trkpt lat="47.93587" lon="7.04583">
        <ele>935.15</ele>
        <time>2016-10-02T11:05:16Z</time>
      </trkpt>
      <trkpt lat="47.93588" lon="7.04567">
        <ele>935.75</ele>
        <time>2016-10-02T11:06:23Z</time>
      </trkpt>
      <trkpt lat="47.93584" lon="7.04569">
        <ele>935.98</ele>
        <time>2016-10-02T11:08:08Z</time>
      </trkpt>
      <trkpt lat="47.93584" lon="7.04568">
        <ele>934.2</ele>
        <time>2016-10-02T11:09:37Z</time>
      </trkpt>
      <trkpt lat="47.93588" lon="7.04565">
        <ele>934.78</ele>
        <time>2016-10-02T11:11:29Z</time>
      </trkpt>
      <trkpt lat="47.93586" lon="7.0456">
        <ele>934.89</ele>
        <time>2016-10-02T11:13:44Z</time>
      </trkpt>
      <trkpt lat="47.93585" lon="7.04581">
        <ele>931.1</ele>
        <time>2016-10-02T11:14:53Z</time>
      </trkpt>
      <trkpt lat="47.93576" lon="7.04593">
        <ele>933.73</ele>
        <time>2016-10-02T11:16:08Z</time>
      </trkpt>
      <trkpt lat="47.93575" lon="7.04602">
        <ele>933.84</ele>
        <time>2016-10-02T11:16:45Z</time>
      </trkpt>
      <trkpt lat="47.93587" lon="7.04592">
        <ele>934.37</ele>
        <time>2016-10-02T11:17:10Z</time>
      </trkpt>
      <trkpt lat="47.93594" lon="7.04587">
        <ele>934.89</ele>
        <time>2016-10-02T11:18:42Z</time>
      </trkpt>
      <trkpt lat="47.93603" lon="7.04563">
        <ele>939.25</ele>
        <time>2016-10-02T11:19:09Z</time>
      </trkpt>
      <trkpt lat="47.93618" lon="7.04578">
        <ele>938.86</ele>
        <time>2016-10-02T11:19:33Z</time>
      </trkpt>
      <trkpt lat="47.93641" lon="7.04589">
        <ele>939.39</ele>
        <time>2016-10-02T11:19:53Z</time>
      </trkpt>
      <trkpt lat="47.93638" lon="7.04563">
        <ele>943.8</ele>
        <time>2016-10-02T11:20:32Z</time>
      </trkpt>
      <trkpt lat="47.93637" lon="7.04528">
        <ele>950.17</ele>
        <time>2016-10-02T11:21:07Z</time>
      </trkpt>
      <trkpt lat="47.93645" lon="7.04499">
        <ele>953.5</ele>
        <time>2016-10-02T11:21:39Z</time>
      </trkpt>
      <trkpt lat="47.93655" lon="7.04471">
        <ele>956.84</ele>
        <time>2016-10-02T11:22:09Z</time>
      </trkpt>
      <trkpt lat="47.9367" lon="7.04449">
        <ele>960.7</ele>
        <time>2016-10-02T11:22:42Z</time>
      </trkpt>
      <trkpt lat="47.93683" lon="7.0442">
        <ele>963.44</ele>
        <time>2016-10-02T11:23:12Z</time>
      </trkpt>
      <trkpt lat="47.93697" lon="7.04396">
        <ele>967.83</ele>
        <time>2016-10-02T11:23:42Z</time>
      </trkpt>
      <trkpt lat="47.93712" lon="7.04376">
        <ele>972.67</ele>
        <time>2016-10-02T11:24:13Z</time>
      </trkpt>
      <trkpt lat="47.93731" lon="7.04359">
        <ele>977.32</ele>
        <time>2016-10-02T11:24:51Z</time>
      </trkpt>
      <trkpt lat="47.93754" lon="7.04369">
        <ele>984.96</ele>
        <time>2016-10-02T11:25:28Z</time>
      </trkpt>
      <trkpt lat="47.93774" lon="7.04364">
        <ele>991.45</ele>
        <time>2016-10-02T11:26:05Z</time>
      </trkpt>
      <trkpt lat="47.93795" lon="7.04365">
        <ele>994.91</ele>
        <time>2016-10-02T11:26:36Z</time>
      </trkpt>
      <trkpt lat="47.93818" lon="7.04367">
        <ele>1000.35</ele>
        <time>2016-10-02T11:27:06Z</time>
      </trkpt>
      <trkpt lat="47.93843" lon="7.04366">
        <ele>1007</ele>
        <time>2016-10-02T11:27:36Z</time>
      </trkpt>
      <trkpt lat="47.93869" lon="7.04366">
        <ele>1011.64</ele>
        <time>2016-10-02T11:28:11Z</time>
      </trkpt>
      <trkpt lat="47.939" lon="7.04372">
        <ele>1015.69</ele>
        <time>2016-10-02T11:28:44Z</time>
      </trkpt>
      <trkpt lat="47.93927" lon="7.04373">
        <ele>1019.92</ele>
        <time>2016-10-02T11:29:12Z</time>
      </trkpt>
      <trkpt lat="47.93951" lon="7.04372">
        <ele>1027.22</ele>
        <time>2016-10-02T11:29:45Z</time>
      </trkpt>
      <trkpt lat="47.93974" lon="7.0439">
        <ele>1033.73</ele>
        <time>2016-10-02T11:30:19Z</time>
      </trkpt>
      <trkpt lat="47.93993" lon="7.04402">
        <ele>1042.77</ele>
        <time>2016-10-02T11:30:58Z</time>
      </trkpt>
      <trkpt lat="47.94013" lon="7.04401">
        <ele>1049.62</ele>
        <time>2016-10-02T11:31:31Z</time>
      </trkpt>
      <trkpt lat="47.94037" lon="7.0442">
        <ele>1054.43</ele>
        <time>2016-10-02T11:32:02Z</time>
      </trkpt>
      <trkpt lat="47.94059" lon="7.04429">
        <ele>1059.72</ele>
        <time>2016-10-02T11:32:31Z</time>
      </trkpt>
      <trkpt lat="47.94082" lon="7.04434">
        <ele>1067.28</ele>
        <time>2016-10-02T11:33:02Z</time>
      </trkpt>
      <trkpt lat="47.94104" lon="7.04428">
        <ele>1071.95</ele>
        <time>2016-10-02T11:33:31Z</time>
      </trkpt>
      <trkpt lat="47.94127" lon="7.04423">
        <ele>1079.36</ele>
        <time>2016-10-02T11:33:55Z</time>
      </trkpt>
      <trkpt lat="47.94142" lon="7.04431">
        <ele>1080.38</ele>
        <time>2016-10-02T11:36:33Z</time>
      </trkpt>
      <trkpt lat="47.94159" lon="7.04428">
        <ele>1082.02</ele>
        <time>2016-10-02T11:41:14Z</time>
      </trkpt>
      <trkpt lat="47.94176" lon="7.04417">
        <ele>1086.42</ele>
        <time>2016-10-02T11:41:42Z</time>
      </trkpt>
      <trkpt lat="47.94194" lon="7.04411">
        <ele>1090.44</ele>
        <time>2016-10-02T11:42:11Z</time>
      </trkpt>
      <trkpt lat="47.94213" lon="7.04409">
        <ele>1092.89</ele>
        <time>2016-10-02T11:42:38Z</time>
      </trkpt>
      <trkpt lat="47.9423" lon="7.0441">
        <ele>1097.12</ele>
        <time>2016-10-02T11:43:04Z</time>
      </trkpt>
      <trkpt lat="47.94248" lon="7.04407">
        <ele>1100.51</ele>
        <time>2016-10-02T11:43:34Z</time>
      </trkpt>
      <trkpt lat="47.94266" lon="7.04415">
        <ele>1104.22</ele>
        <time>2016-10-02T11:44:03Z</time>
      </trkpt>
      <trkpt lat="47.94284" lon="7.04422">
        <ele>1106.62</ele>
        <time>2016-10-02T11:44:32Z</time>
      </trkpt>
      <trkpt lat="47.94288" lon="7.04432">
        <ele>1108.71</ele>
        <time>2016-10-02T11:46:05Z</time>
      </trkpt>
      <trkpt lat="47.94305" lon="7.0444">
        <ele>1111.55</ele>
        <time>2016-10-02T11:46:32Z</time>
      </trkpt>
      <trkpt lat="47.94323" lon="7.0445">
        <ele>1115.57</ele>
        <time>2016-10-02T11:47:01Z</time>
      </trkpt>
      <trkpt lat="47.94341" lon="7.0446">
        <ele>1117.8</ele>
        <time>2016-10-02T11:47:28Z</time>
      </trkpt>
      <trkpt lat="47.9436" lon="7.04469">
        <ele>1120.41</ele>
        <time>2016-10-02T11:47:57Z</time>
      </trkpt>
      <trkpt lat="47.94377" lon="7.04476">
        <ele>1125.12</ele>
        <time>2016-10-02T11:48:26Z</time>
      </trkpt>
      <trkpt lat="47.94394" lon="7.04483">
        <ele>1127.49</ele>
        <time>2016-10-02T11:48:54Z</time>
      </trkpt>
      <trkpt lat="47.94412" lon="7.04488">
        <ele>1130.8</ele>
        <time>2016-10-02T11:49:20Z</time>
      </trkpt>
      <trkpt lat="47.9443" lon="7.04495">
        <ele>1134.5</ele>
        <time>2016-10-02T11:49:49Z</time>
      </trkpt>
      <trkpt lat="47.94448" lon="7.04498">
        <ele>1137.67</ele>
        <time>2016-10-02T11:50:16Z</time>
      </trkpt>
      <trkpt lat="47.94466" lon="7.04504">
        <ele>1142.04</ele>
        <time>2016-10-02T11:50:46Z</time>
      </trkpt>
      <trkpt lat="47.94484" lon="7.04509">
        <ele>1144.85</ele>
        <time>2016-10-02T11:51:16Z</time>
      </trkpt>
      <trkpt lat="47.94503" lon="7.04519">
        <ele>1149.92</ele>
        <time>2016-10-02T11:51:41Z</time>
      </trkpt>
      <trkpt lat="47.94522" lon="7.04525">
        <ele>1153.55</ele>
        <time>2016-10-02T11:52:07Z</time>
      </trkpt>
      <trkpt lat="47.94541" lon="7.04533">
        <ele>1158.58</ele>
        <time>2016-10-02T11:52:34Z</time>
      </trkpt>
      <trkpt lat="47.94559" lon="7.04541">
        <ele>1163.11</ele>
        <time>2016-10-02T11:53:06Z</time>
      </trkpt>
      <trkpt lat="47.94576" lon="7.04548">
        <ele>1168.27</ele>
        <time>2016-10-02T11:53:53Z</time>
      </trkpt>
      <trkpt lat="47.94594" lon="7.04559">
        <ele>1173.02</ele>
        <time>2016-10-02T11:54:19Z</time>
      </trkpt>
      <trkpt lat="47.94613" lon="7.04558">
        <ele>1176.8</ele>
        <time>2016-10-02T11:54:44Z</time>
      </trkpt>
      <trkpt lat="47.9463" lon="7.04554">
        <ele>1180.9</ele>
        <time>2016-10-02T11:55:10Z</time>
      </trkpt>
      <trkpt lat="47.94648" lon="7.04554">
        <ele>1185.82</ele>
        <time>2016-10-02T11:55:38Z</time>
      </trkpt>
      <trkpt lat="47.94665" lon="7.04553">
        <ele>1187.15</ele>
        <time>2016-10-02T11:56:02Z</time>
      </trkpt>
      <trkpt lat="47.94684" lon="7.04554">
        <ele>1189.98</ele>
        <time>2016-10-02T11:56:28Z</time>
      </trkpt>
      <trkpt lat="47.94701" lon="7.04546">
        <ele>1193.97</ele>
        <time>2016-10-02T11:56:54Z</time>
      </trkpt>
      <trkpt lat="47.94722" lon="7.04545">
        <ele>1197.8</ele>
        <time>2016-10-02T11:57:24Z</time>
      </trkpt>
      <trkpt lat="47.94741" lon="7.04549">
        <ele>1200.98</ele>
        <time>2016-10-02T11:57:49Z</time>
      </trkpt>
      <trkpt lat="47.9476" lon="7.04557">
        <ele>1204.47</ele>
        <time>2016-10-02T11:58:20Z</time>
      </trkpt>
      <trkpt lat="47.94779" lon="7.04566">
        <ele>1207.98</ele>
        <time>2016-10-02T11:58:43Z</time>
      </trkpt>
      <trkpt lat="47.94798" lon="7.04575">
        <ele>1210.65</ele>
        <time>2016-10-02T11:59:09Z</time>
      </trkpt>
      <trkpt lat="47.94814" lon="7.04571">
        <ele>1212.73</ele>
        <time>2016-10-02T11:59:44Z</time>
      </trkpt>
      <trkpt lat="47.94822" lon="7.04576">
        <ele>1212.12</ele>
        <time>2016-10-02T12:02:03Z</time>
      </trkpt>
      <trkpt lat="47.94814" lon="7.04568">
        <ele>1211.49</ele>
        <time>2016-10-02T12:04:40Z</time>
      </trkpt>
      <trkpt lat="47.94805" lon="7.04543">
        <ele>1208.68</ele>
        <time>2016-10-02T12:06:04Z</time>
      </trkpt>
      <trkpt lat="47.94809" lon="7.04516">
        <ele>1209.04</ele>
        <time>2016-10-02T12:07:09Z</time>
      </trkpt>
      <trkpt lat="47.94819" lon="7.04489">
        <ele>1211.55</ele>
        <time>2016-10-02T12:07:44Z</time>
      </trkpt>
      <trkpt lat="47.94824" lon="7.04489">
        <ele>1211.18</ele>
        <time>2016-10-02T12:08:46Z</time>
      </trkpt>
      <trkpt lat="47.94826" lon="7.04479">
        <ele>1210.87</ele>
        <time>2016-10-02T12:11:05Z</time>
      </trkpt>
      <trkpt lat="47.94839" lon="7.04437">
        <ele>1215.61</ele>
        <time>2016-10-02T12:11:39Z</time>
      </trkpt>
      <trkpt lat="47.94861" lon="7.04404">
        <ele>1216.16</ele>
        <time>2016-10-02T12:12:15Z</time>
      </trkpt>
      <trkpt lat="47.94874" lon="7.04366">
        <ele>1220.19</ele>
        <time>2016-10-02T12:12:52Z</time>
      </trkpt>
      <trkpt lat="47.94886" lon="7.04337">
        <ele>1222.74</ele>
        <time>2016-10-02T12:13:24Z</time>
      </trkpt>
      <trkpt lat="47.94894" lon="7.04289">
        <ele>1223.5</ele>
        <time>2016-10-02T12:13:54Z</time>
      </trkpt>
      <trkpt lat="47.94907" lon="7.04248">
        <ele>1224.26</ele>
        <time>2016-10-02T12:14:30Z</time>
      </trkpt>
      <trkpt lat="47.94919" lon="7.04215">
        <ele>1226.53</ele>
        <time>2016-10-02T12:15:03Z</time>
      </trkpt>
      <trkpt lat="47.94931" lon="7.0418">
        <ele>1229.58</ele>
        <time>2016-10-02T12:15:42Z</time>
      </trkpt>
      <trkpt lat="47.94946" lon="7.04148">
        <ele>1233.64</ele>
        <time>2016-10-02T12:16:17Z</time>
      </trkpt>
      <trkpt lat="47.94965" lon="7.04113">
        <ele>1236.39</ele>
        <time>2016-10-02T12:16:53Z</time>
      </trkpt>
      <trkpt lat="47.94992" lon="7.0409">
        <ele>1240.12</ele>
        <time>2016-10-02T12:17:31Z</time>
      </trkpt>
      <trkpt lat="47.95018" lon="7.04065">
        <ele>1242.54</ele>
        <time>2016-10-02T12:18:08Z</time>
      </trkpt>
      <trkpt lat="47.95045" lon="7.04048">
        <ele>1245.29</ele>
        <time>2016-10-02T12:18:45Z</time>
      </trkpt>
      <trkpt lat="47.95074" lon="7.04029">
        <ele>1248.16</ele>
        <time>2016-10-02T12:19:25Z</time>
      </trkpt>
      <trkpt lat="47.95109" lon="7.04015">
        <ele>1249.33</ele>
        <time>2016-10-02T12:20:05Z</time>
      </trkpt>
      <trkpt lat="47.95146" lon="7.04004">
        <ele>1253.46</ele>
        <time>2016-10-02T12:20:46Z</time>
      </trkpt>
      <trkpt lat="47.95187" lon="7.03993">
        <ele>1254.24</ele>
        <time>2016-10-02T12:21:25Z</time>
      </trkpt>
      <trkpt lat="47.9522" lon="7.03977">
        <ele>1256.26</ele>
        <time>2016-10-02T12:22:00Z</time>
      </trkpt>
      <trkpt lat="47.95242" lon="7.03951">
        <ele>1257.99</ele>
        <time>2016-10-02T12:22:31Z</time>
      </trkpt>
      <trkpt lat="47.95253" lon="7.03939">
        <ele>1258.31</ele>
        <time>2016-10-02T12:23:09Z</time>
      </trkpt>
      <trkpt lat="47.95266" lon="7.03936">
        <ele>1258.53</ele>
        <time>2016-10-02T12:24:29Z</time>
      </trkpt>
      <trkpt lat="47.95286" lon="7.03935">
        <ele>1263.58</ele>
        <time>2016-10-02T12:25:08Z</time>
      </trkpt>
      <trkpt lat="47.95303" lon="7.03918">
        <ele>1263.65</ele>
        <time>2016-10-02T12:25:46Z</time>
      </trkpt>
      <trkpt lat="47.9532" lon="7.03893">
        <ele>1265.06</ele>
        <time>2016-10-02T12:26:15Z</time>
      </trkpt>
      <trkpt lat="47.95343" lon="7.03871">
        <ele>1267.74</ele>
        <time>2016-10-02T12:26:42Z</time>
      </trkpt>
      <trkpt lat="47.95365" lon="7.03862">
        <ele>1272.45</ele>
        <time>2016-10-02T12:27:12Z</time>
      </trkpt>
      <trkpt lat="47.95389" lon="7.03859">
        <ele>1273.57</ele>
        <time>2016-10-02T12:27:34Z</time>
      </trkpt>
      <trkpt lat="47.95412" lon="7.03863">
        <ele>1273.59</ele>
        <time>2016-10-02T12:27:55Z</time>
      </trkpt>
      <trkpt lat="47.95433" lon="7.03863">
        <ele>1274.73</ele>
        <time>2016-10-02T12:28:16Z</time>
      </trkpt>
      <trkpt lat="47.95454" lon="7.03864">
        <ele>1276.04</ele>
        <time>2016-10-02T12:28:38Z</time>
      </trkpt>
      <trkpt lat="47.95474" lon="7.03865">
        <ele>1279.56</ele>
        <time>2016-10-02T12:29:01Z</time>
      </trkpt>
      <trkpt lat="47.95495" lon="7.03867">
        <ele>1284.24</ele>
        <time>2016-10-02T12:29:27Z</time>
      </trkpt>
      <trkpt lat="47.95516" lon="7.03873">
        <ele>1288.5</ele>
        <time>2016-10-02T12:29:54Z</time>
      </trkpt>
      <trkpt lat="47.95535" lon="7.03867">
        <ele>1289.93</ele>
        <time>2016-10-02T12:30:16Z</time>
      </trkpt>
      <trkpt lat="47.95549" lon="7.03874">
        <ele>1292.6</ele>
        <time>2016-10-02T12:30:44Z</time>
      </trkpt>
      <trkpt lat="47.95559" lon="7.03895">
        <ele>1298.24</ele>
        <time>2016-10-02T12:31:14Z</time>
      </trkpt>
      <trkpt lat="47.95576" lon="7.03911">
        <ele>1301.75</ele>
        <time>2016-10-02T12:31:36Z</time>
      </trkpt>
      <trkpt lat="47.95592" lon="7.03925">
        <ele>1301.19</ele>
        <time>2016-10-02T12:31:56Z</time>
      </trkpt>
      <trkpt lat="47.95608" lon="7.03938">
        <ele>1304.13</ele>
        <time>2016-10-02T12:32:21Z</time>
      </trkpt>
      <trkpt lat="47.95622" lon="7.03943">
        <ele>1307.38</ele>
        <time>2016-10-02T12:35:50Z</time>
      </trkpt>
      <trkpt lat="47.95642" lon="7.03947">
        <ele>1304.72</ele>
        <time>2016-10-02T12:36:16Z</time>
      </trkpt>
      <trkpt lat="47.95659" lon="7.03957">
        <ele>1299.93</ele>
        <time>2016-10-02T12:36:41Z</time>
      </trkpt>
      <trkpt lat="47.95681" lon="7.03961">
        <ele>1295.29</ele>
        <time>2016-10-02T12:37:06Z</time>
      </trkpt>
      <trkpt lat="47.95705" lon="7.03965">
        <ele>1292.89</ele>
        <time>2016-10-02T12:37:28Z</time>
      </trkpt>
      <trkpt lat="47.95733" lon="7.03968">
        <ele>1289.77</ele>
        <time>2016-10-02T12:37:59Z</time>
      </trkpt>
      <trkpt lat="47.95761" lon="7.03974">
        <ele>1286.82</ele>
        <time>2016-10-02T12:38:29Z</time>
      </trkpt>
      <trkpt lat="47.95797" lon="7.03977">
        <ele>1284.52</ele>
        <time>2016-10-02T12:39:04Z</time>
      </trkpt>
      <trkpt lat="47.95819" lon="7.03977">
        <ele>1284.47</ele>
        <time>2016-10-02T12:39:38Z</time>
      </trkpt>
      <trkpt lat="47.95852" lon="7.03981">
        <ele>1283.36</ele>
        <time>2016-10-02T12:40:09Z</time>
      </trkpt>
      <trkpt lat="47.95894" lon="7.03979">
        <ele>1280.72</ele>
        <time>2016-10-02T12:40:48Z</time>
      </trkpt>
      <trkpt lat="47.95916" lon="7.03965">
        <ele>1275.64</ele>
        <time>2016-10-02T12:41:27Z</time>
      </trkpt>
      <trkpt lat="47.95946" lon="7.03959">
        <ele>1271.8</ele>
        <time>2016-10-02T12:42:03Z</time>
      </trkpt>
      <trkpt lat="47.95963" lon="7.03946">
        <ele>1268.13</ele>
        <time>2016-10-02T12:42:37Z</time>
      </trkpt>
      <trkpt lat="47.95981" lon="7.03928">
        <ele>1263.69</ele>
        <time>2016-10-02T12:43:04Z</time>
      </trkpt>
      <trkpt lat="47.96002" lon="7.03918">
        <ele>1259.75</ele>
        <time>2016-10-02T12:43:27Z</time>
      </trkpt>
      <trkpt lat="47.96023" lon="7.03911">
        <ele>1256.57</ele>
        <time>2016-10-02T12:43:55Z</time>
      </trkpt>
      <trkpt lat="47.96042" lon="7.03905">
        <ele>1257.36</ele>
        <time>2016-10-02T12:44:15Z</time>
      </trkpt>
      <trkpt lat="47.9606" lon="7.03901">
        <ele>1257.18</ele>
        <time>2016-10-02T12:44:32Z</time>
      </trkpt>
      <trkpt lat="47.9608" lon="7.03897">
        <ele>1257.21</ele>
        <time>2016-10-02T12:44:51Z</time>
      </trkpt>
      <trkpt lat="47.96099" lon="7.03894">
        <ele>1259.03</ele>
        <time>2016-10-02T12:45:10Z</time>
      </trkpt>
      <trkpt lat="47.96118" lon="7.03892">
        <ele>1258.58</ele>
        <time>2016-10-02T12:45:28Z</time>
      </trkpt>
      <trkpt lat="47.96137" lon="7.03889">
        <ele>1258.06</ele>
        <time>2016-10-02T12:45:46Z</time>
      </trkpt>
      <trkpt lat="47.96157" lon="7.03886">
        <ele>1258.33</ele>
        <time>2016-10-02T12:46:03Z</time>
      </trkpt>
      <trkpt lat="47.96176" lon="7.03886">
        <ele>1258.57</ele>
        <time>2016-10-02T12:46:20Z</time>
      </trkpt>
      <trkpt lat="47.96195" lon="7.03881">
        <ele>1261.72</ele>
        <time>2016-10-02T12:46:40Z</time>
      </trkpt>
      <trkpt lat="47.96216" lon="7.03881">
        <ele>1260.41</ele>
        <time>2016-10-02T12:47:19Z</time>
      </trkpt>
      <trkpt lat="47.96231" lon="7.03884">
        <ele>1260.11</ele>
        <time>2016-10-02T12:49:43Z</time>
      </trkpt>
      <trkpt lat="47.96237" lon="7.03887">
        <ele>1259.63</ele>
        <time>2016-10-02T12:50:46Z</time>
      </trkpt>
      <trkpt lat="47.96253" lon="7.03897">
        <ele>1254</ele>
        <time>2016-10-02T12:51:20Z</time>
      </trkpt>
      <trkpt lat="47.96272" lon="7.03905">
        <ele>1249.74</ele>
        <time>2016-10-02T12:51:42Z</time>
      </trkpt>
      <trkpt lat="47.9629" lon="7.03915">
        <ele>1247</ele>
        <time>2016-10-02T12:52:00Z</time>
      </trkpt>
      <trkpt lat="47.96307" lon="7.03925">
        <ele>1245.25</ele>
        <time>2016-10-02T12:52:50Z</time>
      </trkpt>
      <trkpt lat="47.96325" lon="7.03931">
        <ele>1244.18</ele>
        <time>2016-10-02T12:53:06Z</time>
      </trkpt>
      <trkpt lat="47.96344" lon="7.03938">
        <ele>1244.51</ele>
        <time>2016-10-02T12:53:23Z</time>
      </trkpt>
      <trkpt lat="47.9636" lon="7.03952">
        <ele>1245.98</ele>
        <time>2016-10-02T12:53:41Z</time>
      </trkpt>
      <trkpt lat="47.96378" lon="7.03961">
        <ele>1247.78</ele>
        <time>2016-10-02T12:53:58Z</time>
      </trkpt>
      <trkpt lat="47.96396" lon="7.03967">
        <ele>1251.23</ele>
        <time>2016-10-02T12:54:16Z</time>
      </trkpt>
      <trkpt lat="47.96411" lon="7.03976">
        <ele>1252.77</ele>
        <time>2016-10-02T12:54:35Z</time>
      </trkpt>
      <trkpt lat="47.96431" lon="7.03978">
        <ele>1247.12</ele>
        <time>2016-10-02T12:54:51Z</time>
      </trkpt>
      <trkpt lat="47.96448" lon="7.03987">
        <ele>1244.92</ele>
        <time>2016-10-02T12:55:06Z</time>
      </trkpt>
      <trkpt lat="47.96468" lon="7.03993">
        <ele>1244.39</ele>
        <time>2016-10-02T12:55:23Z</time>
      </trkpt>
      <trkpt lat="47.96486" lon="7.04002">
        <ele>1240.19</ele>
        <time>2016-10-02T12:55:43Z</time>
      </trkpt>
      <trkpt lat="47.96504" lon="7.04009">
        <ele>1235.85</ele>
        <time>2016-10-02T12:56:03Z</time>
      </trkpt>
      <trkpt lat="47.96523" lon="7.04013">
        <ele>1231.79</ele>
        <time>2016-10-02T12:56:21Z</time>
      </trkpt>
      <trkpt lat="47.96541" lon="7.04015">
        <ele>1227.35</ele>
        <time>2016-10-02T12:56:42Z</time>
      </trkpt>
      <trkpt lat="47.96559" lon="7.04019">
        <ele>1224.24</ele>
        <time>2016-10-02T12:57:24Z</time>
      </trkpt>
      <trkpt lat="47.96578" lon="7.04027">
        <ele>1219.86</ele>
        <time>2016-10-02T12:57:43Z</time>
      </trkpt>
      <trkpt lat="47.96596" lon="7.0404">
        <ele>1216.91</ele>
        <time>2016-10-02T12:58:00Z</time>
      </trkpt>
      <trkpt lat="47.96612" lon="7.04053">
        <ele>1215.46</ele>
        <time>2016-10-02T12:58:16Z</time>
      </trkpt>
      <trkpt lat="47.96629" lon="7.04066">
        <ele>1211.35</ele>
        <time>2016-10-02T12:58:36Z</time>
      </trkpt>
      <trkpt lat="47.96647" lon="7.04076">
        <ele>1207.09</ele>
        <time>2016-10-02T12:58:56Z</time>
      </trkpt>
      <trkpt lat="47.96666" lon="7.04079">
        <ele>1204.1</ele>
        <time>2016-10-02T12:59:16Z</time>
      </trkpt>
      <trkpt lat="47.96682" lon="7.04096">
        <ele>1200.79</ele>
        <time>2016-10-02T12:59:35Z</time>
      </trkpt>
      <trkpt lat="47.96698" lon="7.04114">
        <ele>1197.23</ele>
        <time>2016-10-02T12:59:54Z</time>
      </trkpt>
      <trkpt lat="47.96714" lon="7.04129">
        <ele>1194.93</ele>
        <time>2016-10-02T13:00:11Z</time>
      </trkpt>
      <trkpt lat="47.96729" lon="7.04145">
        <ele>1190.45</ele>
        <time>2016-10-02T13:00:30Z</time>
      </trkpt>
      <trkpt lat="47.96744" lon="7.04162">
        <ele>1188.31</ele>
        <time>2016-10-02T13:00:47Z</time>
      </trkpt>
      <trkpt lat="47.96764" lon="7.04177">
        <ele>1187.99</ele>
        <time>2016-10-02T13:01:05Z</time>
      </trkpt>
      <trkpt lat="47.96783" lon="7.04184">
        <ele>1185.74</ele>
        <time>2016-10-02T13:01:22Z</time>
      </trkpt>
      <trkpt lat="47.96801" lon="7.0419">
        <ele>1184.62</ele>
        <time>2016-10-02T13:01:38Z</time>
      </trkpt>
      <trkpt lat="47.96819" lon="7.04198">
        <ele>1187.73</ele>
        <time>2016-10-02T13:02:02Z</time>
      </trkpt>
      <trkpt lat="47.96826" lon="7.04194">
        <ele>1186.59</ele>
        <time>2016-10-02T13:04:38Z</time>
      </trkpt>
      <trkpt lat="47.96817" lon="7.04175">
        <ele>1185.2</ele>
        <time>2016-10-02T13:05:41Z</time>
      </trkpt>
      <trkpt lat="47.9681" lon="7.04151">
        <ele>1183.79</ele>
        <time>2016-10-02T13:06:02Z</time>
      </trkpt>
      <trkpt lat="47.96802" lon="7.04124">
        <ele>1181.83</ele>
        <time>2016-10-02T13:06:22Z</time>
      </trkpt>
      <trkpt lat="47.96796" lon="7.04096">
        <ele>1179.7</ele>
        <time>2016-10-02T13:06:42Z</time>
      </trkpt>
      <trkpt lat="47.96795" lon="7.04066">
        <ele>1178.29</ele>
        <time>2016-10-02T13:07:05Z</time>
      </trkpt>
      <trkpt lat="47.96796" lon="7.04032">
        <ele>1176.42</ele>
        <time>2016-10-02T13:07:32Z</time>
      </trkpt>
      <trkpt lat="47.96798" lon="7.03994">
        <ele>1173.84</ele>
        <time>2016-10-02T13:08:00Z</time>
      </trkpt>
      <trkpt lat="47.96796" lon="7.03952">
        <ele>1170.36</ele>
        <time>2016-10-02T13:08:31Z</time>
      </trkpt>
      <trkpt lat="47.96801" lon="7.03909">
        <ele>1167.17</ele>
        <time>2016-10-02T13:09:00Z</time>
      </trkpt>
      <trkpt lat="47.968" lon="7.03864">
        <ele>1164.91</ele>
        <time>2016-10-02T13:09:27Z</time>
      </trkpt>
      <trkpt lat="47.96802" lon="7.03826">
        <ele>1164.12</ele>
        <time>2016-10-02T13:09:45Z</time>
      </trkpt>
      <trkpt lat="47.9681" lon="7.03796">
        <ele>1163.44</ele>
        <time>2016-10-02T13:10:12Z</time>
      </trkpt>
      <trkpt lat="47.96811" lon="7.03763">
        <ele>1164.34</ele>
        <time>2016-10-02T13:10:34Z</time>
      </trkpt>
      <trkpt lat="47.96813" lon="7.03734">
        <ele>1164.32</ele>
        <time>2016-10-02T13:10:53Z</time>
      </trkpt>
      <trkpt lat="47.96813" lon="7.03703">
        <ele>1163.82</ele>
        <time>2016-10-02T13:11:13Z</time>
      </trkpt>
      <trkpt lat="47.96816" lon="7.03673">
        <ele>1164.24</ele>
        <time>2016-10-02T13:11:31Z</time>
      </trkpt>
      <trkpt lat="47.96818" lon="7.03643">
        <ele>1165.24</ele>
        <time>2016-10-02T13:11:49Z</time>
      </trkpt>
      <trkpt lat="47.96822" lon="7.03616">
        <ele>1164.26</ele>
        <time>2016-10-02T13:12:05Z</time>
      </trkpt>
      <trkpt lat="47.96824" lon="7.03587">
        <ele>1164.79</ele>
        <time>2016-10-02T13:12:22Z</time>
      </trkpt>
      <trkpt lat="47.96826" lon="7.03558">
        <ele>1165.33</ele>
        <time>2016-10-02T13:12:39Z</time>
      </trkpt>
      <trkpt lat="47.96828" lon="7.03529">
        <ele>1165.19</ele>
        <time>2016-10-02T13:12:57Z</time>
      </trkpt>
      <trkpt lat="47.9683" lon="7.03502">
        <ele>1166.31</ele>
        <time>2016-10-02T13:13:13Z</time>
      </trkpt>
      <trkpt lat="47.96831" lon="7.03474">
        <ele>1166.54</ele>
        <time>2016-10-02T13:13:30Z</time>
      </trkpt>
      <trkpt lat="47.96835" lon="7.03448">
        <ele>1167.32</ele>
        <time>2016-10-02T13:13:48Z</time>
      </trkpt>
      <trkpt lat="47.9684" lon="7.03422">
        <ele>1168.43</ele>
        <time>2016-10-02T13:14:04Z</time>
      </trkpt>
      <trkpt lat="47.96846" lon="7.03396">
        <ele>1169.22</ele>
        <time>2016-10-02T13:14:22Z</time>
      </trkpt>
      <trkpt lat="47.96852" lon="7.03369">
        <ele>1168.46</ele>
        <time>2016-10-02T13:14:40Z</time>
      </trkpt>
      <trkpt lat="47.96855" lon="7.03342">
        <ele>1169.93</ele>
        <time>2016-10-02T13:14:56Z</time>
      </trkpt>
      <trkpt lat="47.96859" lon="7.03313">
        <ele>1169.81</ele>
        <time>2016-10-02T13:15:12Z</time>
      </trkpt>
      <trkpt lat="47.96861" lon="7.03285">
        <ele>1170.25</ele>
        <time>2016-10-02T13:15:28Z</time>
      </trkpt>
      <trkpt lat="47.96864" lon="7.03258">
        <ele>1170.79</ele>
        <time>2016-10-02T13:15:44Z</time>
      </trkpt>
      <trkpt lat="47.96862" lon="7.03228">
        <ele>1169.63</ele>
        <time>2016-10-02T13:16:02Z</time>
      </trkpt>
      <trkpt lat="47.96853" lon="7.03216">
        <ele>1168.59</ele>
        <time>2016-10-02T13:17:51Z</time>
      </trkpt>
      <trkpt lat="47.96834" lon="7.03216">
        <ele>1171.45</ele>
        <time>2016-10-02T13:18:27Z</time>
      </trkpt>
      <trkpt lat="47.96814" lon="7.03224">
        <ele>1171.17</ele>
        <time>2016-10-02T13:18:50Z</time>
      </trkpt>
      <trkpt lat="47.96799" lon="7.03228">
        <ele>1171.68</ele>
        <time>2016-10-02T13:19:17Z</time>
      </trkpt>
      <trkpt lat="47.96778" lon="7.0323">
        <ele>1172.36</ele>
        <time>2016-10-02T13:19:35Z</time>
      </trkpt>
      <trkpt lat="47.96759" lon="7.03234">
        <ele>1173</ele>
        <time>2016-10-02T13:19:53Z</time>
      </trkpt>
      <trkpt lat="47.96739" lon="7.03238">
        <ele>1171.64</ele>
        <time>2016-10-02T13:20:12Z</time>
      </trkpt>
      <trkpt lat="47.96718" lon="7.03246">
        <ele>1171.34</ele>
        <time>2016-10-02T13:20:32Z</time>
      </trkpt>
      <trkpt lat="47.96696" lon="7.03254">
        <ele>1170.97</ele>
        <time>2016-10-02T13:20:53Z</time>
      </trkpt>
      <trkpt lat="47.96677" lon="7.03262">
        <ele>1173.82</ele>
        <time>2016-10-02T13:21:12Z</time>
      </trkpt>
      <trkpt lat="47.96657" lon="7.03268">
        <ele>1175.73</ele>
        <time>2016-10-02T13:21:35Z</time>
      </trkpt>
      <trkpt lat="47.96636" lon="7.0327">
        <ele>1177.24</ele>
        <time>2016-10-02T13:21:54Z</time>
      </trkpt>
      <trkpt lat="47.96616" lon="7.03278">
        <ele>1179.61</ele>
        <time>2016-10-02T13:22:16Z</time>
      </trkpt>
      <trkpt lat="47.96596" lon="7.03285">
        <ele>1180.39</ele>
        <time>2016-10-02T13:22:38Z</time>
      </trkpt>
      <trkpt lat="47.96575" lon="7.03284">
        <ele>1180.33</ele>
        <time>2016-10-02T13:22:58Z</time>
      </trkpt>
      <trkpt lat="47.96555" lon="7.03289">
        <ele>1181.31</ele>
        <time>2016-10-02T13:23:16Z</time>
      </trkpt>
      <trkpt lat="47.96537" lon="7.03289">
        <ele>1181.57</ele>
        <time>2016-10-02T13:23:36Z</time>
      </trkpt>
      <trkpt lat="47.96518" lon="7.03289">
        <ele>1181.65</ele>
        <time>2016-10-02T13:23:56Z</time>
      </trkpt>
      <trkpt lat="47.965" lon="7.033">
        <ele>1182.28</ele>
        <time>2016-10-02T13:24:24Z</time>
      </trkpt>
      <trkpt lat="47.96479" lon="7.03314">
        <ele>1184.1</ele>
        <time>2016-10-02T13:24:52Z</time>
      </trkpt>
      <trkpt lat="47.96454" lon="7.03328">
        <ele>1183.37</ele>
        <time>2016-10-02T13:25:23Z</time>
      </trkpt>
      <trkpt lat="47.96416" lon="7.03346">
        <ele>1186.1</ele>
        <time>2016-10-02T13:25:54Z</time>
      </trkpt>
      <trkpt lat="47.96395" lon="7.0336">
        <ele>1186.81</ele>
        <time>2016-10-02T13:26:20Z</time>
      </trkpt>
      <trkpt lat="47.96369" lon="7.03381">
        <ele>1186.09</ele>
        <time>2016-10-02T13:26:46Z</time>
      </trkpt>
      <trkpt lat="47.9634" lon="7.03404">
        <ele>1184.79</ele>
        <time>2016-10-02T13:27:17Z</time>
      </trkpt>
      <trkpt lat="47.96313" lon="7.03422">
        <ele>1180.4</ele>
        <time>2016-10-02T13:27:43Z</time>
      </trkpt>
      <trkpt lat="47.96285" lon="7.0343">
        <ele>1177.51</ele>
        <time>2016-10-02T13:28:13Z</time>
      </trkpt>
      <trkpt lat="47.96253" lon="7.03447">
        <ele>1174.97</ele>
        <time>2016-10-02T13:28:43Z</time>
      </trkpt>
      <trkpt lat="47.96219" lon="7.03457">
        <ele>1173.51</ele>
        <time>2016-10-02T13:29:14Z</time>
      </trkpt>
      <trkpt lat="47.96189" lon="7.0346">
        <ele>1175.78</ele>
        <time>2016-10-02T13:29:42Z</time>
      </trkpt>
      <trkpt lat="47.96158" lon="7.03469">
        <ele>1173.94</ele>
        <time>2016-10-02T13:30:11Z</time>
      </trkpt>
      <trkpt lat="47.96139" lon="7.03474">
        <ele>1174.91</ele>
        <time>2016-10-02T13:30:41Z</time>
      </trkpt>
      <trkpt lat="47.961" lon="7.03466">
        <ele>1176.38</ele>
        <time>2016-10-02T13:31:10Z</time>
      </trkpt>
      <trkpt lat="47.96068" lon="7.03468">
        <ele>1177.06</ele>
        <time>2016-10-02T13:31:39Z</time>
      </trkpt>
      <trkpt lat="47.96032" lon="7.03459">
        <ele>1175.09</ele>
        <time>2016-10-02T13:32:13Z</time>
      </trkpt>
      <trkpt lat="47.96" lon="7.03448">
        <ele>1173.83</ele>
        <time>2016-10-02T13:32:48Z</time>
      </trkpt>
      <trkpt lat="47.95982" lon="7.03432">
        <ele>1173.82</ele>
        <time>2016-10-02T13:33:46Z</time>
      </trkpt>
      <trkpt lat="47.95964" lon="7.03442">
        <ele>1176.87</ele>
        <time>2016-10-02T13:34:14Z</time>
      </trkpt>
      <trkpt lat="47.95932" lon="7.03455">
        <ele>1178.9</ele>
        <time>2016-10-02T13:34:47Z</time>
      </trkpt>
      <trkpt lat="47.95903" lon="7.03465">
        <ele>1181.95</ele>
        <time>2016-10-02T13:35:14Z</time>
      </trkpt>
      <trkpt lat="47.95881" lon="7.03471">
        <ele>1184.6</ele>
        <time>2016-10-02T13:35:43Z</time>
      </trkpt>
      <trkpt lat="47.95864" lon="7.03475">
        <ele>1186.24</ele>
        <time>2016-10-02T13:36:26Z</time>
      </trkpt>
      <trkpt lat="47.95839" lon="7.03471">
        <ele>1189.21</ele>
        <time>2016-10-02T13:36:49Z</time>
      </trkpt>
      <trkpt lat="47.95813" lon="7.03461">
        <ele>1191.84</ele>
        <time>2016-10-02T13:37:15Z</time>
      </trkpt>
      <trkpt lat="47.95785" lon="7.03452">
        <ele>1194.38</ele>
        <time>2016-10-02T13:37:39Z</time>
      </trkpt>
      <trkpt lat="47.95767" lon="7.03443">
        <ele>1194.78</ele>
        <time>2016-10-02T13:38:12Z</time>
      </trkpt>
      <trkpt lat="47.95746" lon="7.03438">
        <ele>1200.62</ele>
        <time>2016-10-02T13:38:49Z</time>
      </trkpt>
      <trkpt lat="47.95726" lon="7.03425">
        <ele>1202</ele>
        <time>2016-10-02T13:39:11Z</time>
      </trkpt>
      <trkpt lat="47.95716" lon="7.03399">
        <ele>1202.71</ele>
        <time>2016-10-02T13:39:26Z</time>
      </trkpt>
      <trkpt lat="47.95711" lon="7.0337">
        <ele>1202.85</ele>
        <time>2016-10-02T13:39:43Z</time>
      </trkpt>
      <trkpt lat="47.95704" lon="7.03342">
        <ele>1202.78</ele>
        <time>2016-10-02T13:40:01Z</time>
      </trkpt>
      <trkpt lat="47.95698" lon="7.03313">
        <ele>1202.92</ele>
        <time>2016-10-02T13:40:18Z</time>
      </trkpt>
      <trkpt lat="47.9569" lon="7.03286">
        <ele>1201.91</ele>
        <time>2016-10-02T13:40:33Z</time>
      </trkpt>
      <trkpt lat="47.95683" lon="7.03259">
        <ele>1201.53</ele>
        <time>2016-10-02T13:40:49Z</time>
      </trkpt>
      <trkpt lat="47.95674" lon="7.03234">
        <ele>1200.1</ele>
        <time>2016-10-02T13:41:05Z</time>
      </trkpt>
      <trkpt lat="47.95667" lon="7.03208">
        <ele>1198.92</ele>
        <time>2016-10-02T13:41:22Z</time>
      </trkpt>
      <trkpt lat="47.9566" lon="7.0318">
        <ele>1197.38</ele>
        <time>2016-10-02T13:41:40Z</time>
      </trkpt>
      <trkpt lat="47.9565" lon="7.03163">
        <ele>1195.84</ele>
        <time>2016-10-02T13:42:10Z</time>
      </trkpt>
      <trkpt lat="47.95633" lon="7.0315">
        <ele>1195.45</ele>
        <time>2016-10-02T13:44:19Z</time>
      </trkpt>
      <trkpt lat="47.95614" lon="7.03142">
        <ele>1194.89</ele>
        <time>2016-10-02T13:44:37Z</time>
      </trkpt>
      <trkpt lat="47.95596" lon="7.03134">
        <ele>1193.96</ele>
        <time>2016-10-02T13:44:55Z</time>
      </trkpt>
      <trkpt lat="47.95577" lon="7.03128">
        <ele>1192.17</ele>
        <time>2016-10-02T13:45:14Z</time>
      </trkpt>
      <trkpt lat="47.95556" lon="7.0312">
        <ele>1190.41</ele>
        <time>2016-10-02T13:45:33Z</time>
      </trkpt>
      <trkpt lat="47.95537" lon="7.03113">
        <ele>1190.93</ele>
        <time>2016-10-02T13:45:51Z</time>
      </trkpt>
      <trkpt lat="47.95519" lon="7.03103">
        <ele>1188.42</ele>
        <time>2016-10-02T13:46:09Z</time>
      </trkpt>
      <trkpt lat="47.95502" lon="7.03091">
        <ele>1188.65</ele>
        <time>2016-10-02T13:46:30Z</time>
      </trkpt>
      <trkpt lat="47.95484" lon="7.03081">
        <ele>1188.3</ele>
        <time>2016-10-02T13:46:45Z</time>
      </trkpt>
      <trkpt lat="47.95467" lon="7.03071">
        <ele>1188.49</ele>
        <time>2016-10-02T13:47:01Z</time>
      </trkpt>
      <trkpt lat="47.95451" lon="7.03059">
        <ele>1186.86</ele>
        <time>2016-10-02T13:47:18Z</time>
      </trkpt>
      <trkpt lat="47.95435" lon="7.03045">
        <ele>1185.31</ele>
        <time>2016-10-02T13:47:35Z</time>
      </trkpt>
      <trkpt lat="47.95419" lon="7.0303">
        <ele>1183.29</ele>
        <time>2016-10-02T13:47:54Z</time>
      </trkpt>
      <trkpt lat="47.95401" lon="7.03023">
        <ele>1181.23</ele>
        <time>2016-10-02T13:48:12Z</time>
      </trkpt>
      <trkpt lat="47.95381" lon="7.0302">
        <ele>1179.21</ele>
        <time>2016-10-02T13:48:31Z</time>
      </trkpt>
      <trkpt lat="47.95364" lon="7.03007">
        <ele>1179.38</ele>
        <time>2016-10-02T13:48:53Z</time>
      </trkpt>
      <trkpt lat="47.95353" lon="7.02978">
        <ele>1180.47</ele>
        <time>2016-10-02T13:49:14Z</time>
      </trkpt>
      <trkpt lat="47.95338" lon="7.02943">
        <ele>1179.22</ele>
        <time>2016-10-02T13:49:43Z</time>
      </trkpt>
      <trkpt lat="47.95322" lon="7.029">
        <ele>1178.36</ele>
        <time>2016-10-02T13:50:12Z</time>
      </trkpt>
      <trkpt lat="47.95306" lon="7.02864">
        <ele>1177.39</ele>
        <time>2016-10-02T13:50:39Z</time>
      </trkpt>
      <trkpt lat="47.95294" lon="7.02826">
        <ele>1176.12</ele>
        <time>2016-10-02T13:51:04Z</time>
      </trkpt>
      <trkpt lat="47.95281" lon="7.02789">
        <ele>1176.06</ele>
        <time>2016-10-02T13:51:32Z</time>
      </trkpt>
      <trkpt lat="47.95295" lon="7.02753">
        <ele>1175.06</ele>
        <time>2016-10-02T13:51:51Z</time>
      </trkpt>
      <trkpt lat="47.95307" lon="7.02726">
        <ele>1175.72</ele>
        <time>2016-10-02T13:52:16Z</time>
      </trkpt>
      <trkpt lat="47.95312" lon="7.02674">
        <ele>1179.45</ele>
        <time>2016-10-02T13:52:47Z</time>
      </trkpt>
      <trkpt lat="47.95308" lon="7.02621">
        <ele>1182.21</ele>
        <time>2016-10-02T13:53:18Z</time>
      </trkpt>
      <trkpt lat="47.95306" lon="7.02589">
        <ele>1184.73</ele>
        <time>2016-10-02T13:53:45Z</time>
      </trkpt>
      <trkpt lat="47.95309" lon="7.02557">
        <ele>1185.43</ele>
        <time>2016-10-02T13:54:07Z</time>
      </trkpt>
      <trkpt lat="47.95304" lon="7.02522">
        <ele>1185.31</ele>
        <time>2016-10-02T13:54:25Z</time>
      </trkpt>
      <trkpt lat="47.95297" lon="7.02488">
        <ele>1186.05</ele>
        <time>2016-10-02T13:54:45Z</time>
      </trkpt>
      <trkpt lat="47.95291" lon="7.02458">
        <ele>1186.59</ele>
        <time>2016-10-02T13:55:02Z</time>
      </trkpt>
      <trkpt lat="47.95283" lon="7.0243">
        <ele>1186.06</ele>
        <time>2016-10-02T13:55:17Z</time>
      </trkpt>
      <trkpt lat="47.95276" lon="7.02401">
        <ele>1186.62</ele>
        <time>2016-10-02T13:55:33Z</time>
      </trkpt>
      <trkpt lat="47.95271" lon="7.02373">
        <ele>1186.78</ele>
        <time>2016-10-02T13:55:51Z</time>
      </trkpt>
      <trkpt lat="47.95269" lon="7.02344">
        <ele>1185.85</ele>
        <time>2016-10-02T13:56:06Z</time>
      </trkpt>
      <trkpt lat="47.95264" lon="7.02316">
        <ele>1186.59</ele>
        <time>2016-10-02T13:56:21Z</time>
      </trkpt>
      <trkpt lat="47.95257" lon="7.02289">
        <ele>1186.59</ele>
        <time>2016-10-02T13:56:35Z</time>
      </trkpt>
      <trkpt lat="47.95252" lon="7.02261">
        <ele>1186.25</ele>
        <time>2016-10-02T13:56:50Z</time>
      </trkpt>
      <trkpt lat="47.95247" lon="7.02234">
        <ele>1186.11</ele>
        <time>2016-10-02T13:57:04Z</time>
      </trkpt>
      <trkpt lat="47.95242" lon="7.02206">
        <ele>1186.75</ele>
        <time>2016-10-02T13:57:19Z</time>
      </trkpt>
      <trkpt lat="47.95236" lon="7.02179">
        <ele>1185.78</ele>
        <time>2016-10-02T13:57:34Z</time>
      </trkpt>
      <trkpt lat="47.95229" lon="7.02153">
        <ele>1185.29</ele>
        <time>2016-10-02T13:57:48Z</time>
      </trkpt>
      <trkpt lat="47.9522" lon="7.02128">
        <ele>1185.06</ele>
        <time>2016-10-02T13:58:02Z</time>
      </trkpt>
      <trkpt lat="47.95209" lon="7.02103">
        <ele>1184.93</ele>
        <time>2016-10-02T13:58:17Z</time>
      </trkpt>
      <trkpt lat="47.95202" lon="7.02079">
        <ele>1184.28</ele>
        <time>2016-10-02T13:58:32Z</time>
      </trkpt>
      <trkpt lat="47.95195" lon="7.02052">
        <ele>1182.73</ele>
        <time>2016-10-02T13:58:47Z</time>
      </trkpt>
      <trkpt lat="47.95186" lon="7.02028">
        <ele>1181.22</ele>
        <time>2016-10-02T13:59:01Z</time>
      </trkpt>
      <trkpt lat="47.95186" lon="7.02">
        <ele>1179.06</ele>
        <time>2016-10-02T13:59:17Z</time>
      </trkpt>
      <trkpt lat="47.95191" lon="7.01973">
        <ele>1176.76</ele>
        <time>2016-10-02T13:59:34Z</time>
      </trkpt>
      <trkpt lat="47.95203" lon="7.01967">
        <ele>1178.23</ele>
        <time>2016-10-02T14:01:21Z</time>
      </trkpt>
      <trkpt lat="47.95202" lon="7.01965">
        <ele>1177.5</ele>
        <time>2016-10-02T14:02:27Z</time>
      </trkpt>
    </trkseg>
  </trk>
</gpx>